Wetterdaten: Freitag, 20.01.2023
Datum Zeit Temp. Aussen Temp. o. S. Temp +5cm Feuchte Auss Luftdruck Regen Sonnenschein Regendauer Solar Windben Empfang
20.01.2023 00:00 -0,3 C -1,1 C -3,3 C 96 % 1010,8 hPa 0,0 l/m 0 min 0 min 0 W/m 3,2 km/h (1 Bft) 100,00 %
20.01.2023 00:02 -0,3 C -1,1 C -3,3 C 96 % 1010,8 hPa 0,0 l/m 0 min 0 min 0 W/m 0,0 km/h (0 Bft) 8,33 %
20.01.2023 00:04 -0,3 C -1,1 C -2,8 C 96 % 1010,8 hPa 0,0 l/m 0 min 0 min 0 W/m 6,4 km/h (2 Bft) 71,88 %
20.01.2023 00:07 -0,3 C -1,1 C -2,8 C 96 % 1010,8 hPa 0,0 l/m 0 min 0 min 0 W/m 6,4 km/h (2 Bft) 97,59 %
20.01.2023 00:08 -0,3 C -1,1 C -2,8 C 96 % 1010,8 hPa 0,0 l/m 0 min 0 min 0 W/m 3,2 km/h (1 Bft) 100,00 %
20.01.2023 00:12 -0,3 C -1,1 C -2,8 C 96 % 1010,9 hPa 0,0 l/m 0 min 0 min 0 W/m 3,2 km/h (1 Bft) 95,65 %
20.01.2023 00:14 -0,3 C -1,1 C -2,8 C 96 % 1010,9 hPa 0,0 l/m 0 min 0 min 0 W/m 9,7 km/h (2 Bft) 100,00 %
20.01.2023 00:16 -0,3 C -1,1 C -2,8 C 96 % 1010,9 hPa 0,0 l/m 0 min 0 min 0 W/m 6,4 km/h (2 Bft) 100,00 %
20.01.2023 00:18 -0,3 C -1,1 C -2,8 C 96 % 1010,9 hPa 0,0 l/m 0 min 0 min 0 W/m 6,4 km/h (2 Bft) 100,00 %
20.01.2023 00:20 -0,3 C -1,1 C -2,8 C 96 % 1010,9 hPa 0,0 l/m 0 min 0 min 0 W/m 9,7 km/h (2 Bft) 100,00 %
20.01.2023 00:22 -0,3 C -1,1 C -2,8 C 96 % 1010,9 hPa 0,0 l/m 0 min 0 min 0 W/m 3,2 km/h (1 Bft) 100,00 %
20.01.2023 00:24 -0,3 C -1,1 C -2,8 C 96 % 1010,9 hPa 0,0 l/m 0 min 0 min 0 W/m 3,2 km/h (1 Bft) 100,00 %
20.01.2023 00:26 -0,4 C -1,1 C -2,8 C 96 % 1010,9 hPa 0,0 l/m 0 min 0 min 0 W/m 0,0 km/h (0 Bft) 97,87 %
20.01.2023 00:28 -0,4 C -1,1 C -2,8 C 96 % 1011,0 hPa 0,0 l/m 0 min 0 min 0 W/m 0,0 km/h (0 Bft) 100,00 %
20.01.2023 00:30 -0,4 C -1,1 C -2,8 C 96 % 1010,9 hPa 0,0 l/m 0 min 0 min 0 W/m 3,2 km/h (1 Bft) 100,00 %
20.01.2023 00:32 -0,4 C -1,1 C -2,8 C 96 % 1011,0 hPa 0,0 l/m 0 min 0 min 0 W/m 3,2 km/h (1 Bft) 100,00 %
20.01.2023 00:34 -0,4 C -1,1 C -2,8 C 96 % 1011,0 hPa 0,0 l/m 0 min 0 min 0 W/m 3,2 km/h (1 Bft) 100,00 %
20.01.2023 00:36 -0,4 C -1,1 C -2,8 C 96 % 1010,9 hPa 0,0 l/m 0 min 0 min 0 W/m 3,2 km/h (1 Bft) 100,00 %
20.01.2023 00:38 -0,4 C -1,1 C -2,8 C 96 % 1011,0 hPa 0,0 l/m 0 min 0 min 0 W/m 0,0 km/h (0 Bft) 100,00 %
20.01.2023 00:40 -0,4 C -1,1 C -2,8 C 96 % 1011,0 hPa 0,0 l/m 0 min 0 min 0 W/m 3,2 km/h (1 Bft) 100,00 %
20.01.2023 00:42 -0,4 C -1,1 C -2,8 C 96 % 1011,0 hPa 0,0 l/m 0 min 0 min 0 W/m 6,4 km/h (2 Bft) 100,00 %
20.01.2023 00:44 -0,4 C -1,1 C -2,8 C 96 % 1011,0 hPa 0,0 l/m 0 min 0 min 0 W/m 3,2 km/h (1 Bft) 100,00 %
20.01.2023 00:46 -0,4 C -1,1 C -2,8 C 96 % 1011,0 hPa 0,0 l/m 0 min 0 min 0 W/m 6,4 km/h (2 Bft) 97,87 %
20.01.2023 00:48 -0,4 C -1,1 C -2,8 C 96 % 1011,1 hPa 0,0 l/m 0 min 0 min 0 W/m 6,4 km/h (2 Bft) 100,00 %
20.01.2023 00:50 -0,3 C -1,1 C -2,8 C 96 % 1011,0 hPa 0,0 l/m 0 min 0 min 0 W/m 9,7 km/h (2 Bft) 100,00 %
20.01.2023 00:52 -0,3 C -0,6 C -2,8 C 96 % 1011,1 hPa 0,0 l/m 0 min 0 min 0 W/m 12,9 km/h (3 Bft) 100,00 %
20.01.2023 00:54 -0,3 C -0,6 C -2,8 C 96 % 1011,1 hPa 0,0 l/m 0 min 0 min 0 W/m 3,2 km/h (1 Bft) 100,00 %
20.01.2023 00:56 -0,2 C -0,6 C -2,8 C 96 % 1011,2 hPa 0,0 l/m 0 min 0 min 0 W/m 6,4 km/h (2 Bft) 93,62 %
20.01.2023 00:58 -0,2 C -0,6 C -2,8 C 96 % 1011,2 hPa 0,0 l/m 0 min 0 min 0 W/m 9,7 km/h (2 Bft) 95,74 %
20.01.2023 01:00 -0,1 C -0,6 C -2,8 C 96 % 1011,2 hPa 0,0 l/m 0 min 0 min 0 W/m 3,2 km/h (1 Bft) 95,74 %
20.01.2023 01:02 -0,1 C -0,6 C -2,8 C 97 % 1011,2 hPa 0,0 l/m 0 min 0 min 0 W/m 3,2 km/h (1 Bft) 95,65 %
20.01.2023 01:04 -0,1 C -0,6 C -2,8 C 97 % 1011,2 hPa 0,0 l/m 0 min 0 min 0 W/m 3,2 km/h (1 Bft) 97,87 %
20.01.2023 01:06 -0,1 C -0,6 C -2,2 C 97 % 1011,2 hPa 0,0 l/m 0 min 0 min 0 W/m 6,4 km/h (2 Bft) 95,74 %
20.01.2023 01:08 0,0 C -0,6 C -2,2 C 96 % 1011,2 hPa 0,0 l/m 0 min 0 min 0 W/m 6,4 km/h (2 Bft) 95,74 %
20.01.2023 01:10 0,0 C -0,6 C -2,2 C 96 % 1011,2 hPa 0,0 l/m 0 min 0 min 0 W/m 6,4 km/h (2 Bft) 97,87 %
20.01.2023 01:12 0,1 C -0,6 C -2,2 C 96 % 1011,2 hPa 0,0 l/m 0 min 0 min 0 W/m 3,2 km/h (1 Bft) 95,74 %
20.01.2023 01:14 0,1 C -0,6 C -2,2 C 96 % 1011,3 hPa 0,0 l/m 0 min 0 min 0 W/m 9,7 km/h (2 Bft) 95,65 %
20.01.2023 01:16 0,1 C -0,6 C -2,2 C 96 % 1011,3 hPa 0,0 l/m 0 min 0 min 0 W/m 3,2 km/h (1 Bft) 95,74 %
20.01.2023 01:18 0,1 C -0,6 C -2,2 C 96 % 1011,3 hPa 0,0 l/m 0 min 0 min 0 W/m 12,9 km/h (3 Bft) 95,74 %
20.01.2023 01:20 0,1 C -0,6 C -2,2 C 96 % 1011,3 hPa 0,0 l/m 0 min 0 min 0 W/m 6,4 km/h (2 Bft) 93,62 %
20.01.2023 01:22 0,1 C -0,6 C -2,2 C 96 % 1011,3 hPa 0,0 l/m 0 min 0 min 0 W/m 6,4 km/h (2 Bft) 95,74 %
20.01.2023 01:24 0,1 C -0,6 C -2,2 C 96 % 1011,2 hPa 0,0 l/m 0 min 0 min 0 W/m 3,2 km/h (1 Bft) 95,74 %
20.01.2023 01:26 0,1 C -0,6 C -2,2 C 96 % 1011,3 hPa 0,0 l/m 0 min 0 min 0 W/m 6,4 km/h (2 Bft) 95,74 %
20.01.2023 01:28 0,2 C 0,0 C -2,2 C 97 % 1011,3 hPa 0,0 l/m 0 min 0 min 0 W/m 6,4 km/h (2 Bft) 91,67 %
20.01.2023 01:30 0,2 C 0,0 C -2,2 C 97 % 1011,4 hPa 0,0 l/m 0 min 0 min 0 W/m 6,4 km/h (2 Bft) 95,74 %
20.01.2023 01:32 0,2 C 0,0 C -2,2 C 97 % 1011,3 hPa 0,0 l/m 0 min 0 min 0 W/m 3,2 km/h (1 Bft) 97,87 %
20.01.2023 01:34 0,2 C 0,0 C -2,2 C 97 % 1011,3 hPa 0,0 l/m 0 min 0 min 0 W/m 12,9 km/h (3 Bft) 97,87 %
20.01.2023 01:36 0,3 C 0,0 C -2,2 C 97 % 1011,4 hPa 0,0 l/m 0 min 0 min 0 W/m 6,4 km/h (2 Bft) 97,83 %
20.01.2023 01:38 0,3 C 0,0 C -2,2 C 97 % 1011,4 hPa 0,0 l/m 0 min 0 min 0 W/m 6,4 km/h (2 Bft) 97,87 %
20.01.2023 01:40 0,3 C 0,0 C -2,2 C 97 % 1011,4 hPa 0,0 l/m 0 min 0 min 0 W/m 12,9 km/h (3 Bft) 95,74 %
20.01.2023 01:42 0,3 C 0,0 C -2,2 C 97 % 1011,4 hPa 0,0 l/m 0 min 0 min 0 W/m 3,2 km/h (1 Bft) 97,87 %
20.01.2023 01:44 0,3 C 0,0 C -2,2 C 97 % 1011,4 hPa 0,0 l/m 0 min 0 min 0 W/m 12,9 km/h (3 Bft) 95,74 %
20.01.2023 01:46 0,3 C 0,0 C -2,2 C 97 % 1011,4 hPa 0,0 l/m 0 min 0 min 0 W/m 9,7 km/h (2 Bft) 95,74 %
20.01.2023 01:48 0,3 C 0,0 C -2,2 C 97 % 1011,4 hPa 0,0 l/m 0 min 0 min 0 W/m 6,4 km/h (2 Bft) 95,65 %
20.01.2023 01:50 0,3 C 0,0 C -2,2 C 97 % 1011,3 hPa 0,0 l/m 0 min 0 min 0 W/m 6,4 km/h (2 Bft) 97,87 %
20.01.2023 01:52 0,3 C 0,0 C -2,2 C 97 % 1011,4 hPa 0,0 l/m 0 min 0 min 0 W/m 9,7 km/h (2 Bft) 97,87 %
20.01.2023 01:54 0,3 C 0,0 C -2,2 C 97 % 1011,5 hPa 0,0 l/m 0 min 0 min 0 W/m 6,4 km/h (2 Bft) 97,14 %
20.01.2023 01:56 0,3 C 0,0 C -2,2 C 97 % 1011,6 hPa 0,0 l/m 0 min 0 min 0 W/m 12,9 km/h (3 Bft) 98,21 %
20.01.2023 01:58 0,4 C 0,0 C -2,2 C 97 % 1011,5 hPa 0,0 l/m 0 min 0 min 0 W/m 6,4 km/h (2 Bft) 97,87 %
20.01.2023 02:00 0,4 C 0,0 C -2,2 C 97 % 1011,5 hPa 0,0 l/m 0 min 0 min 0 W/m 6,4 km/h (2 Bft) 100,00 %
20.01.2023 02:02 0,4 C 0,0 C -2,2 C 97 % 1011,5 hPa 0,0 l/m 0 min 0 min 0 W/m 3,2 km/h (1 Bft) 97,87 %
20.01.2023 02:04 0,4 C 0,0 C -2,2 C 97 % 1011,5 hPa 0,0 l/m 0 min 0 min 0 W/m 9,7 km/h (2 Bft) 97,87 %
20.01.2023 02:06 0,4 C 0,0 C -2,2 C 97 % 1011,5 hPa 0,0 l/m 0 min 0 min 0 W/m 16,1 km/h (3 Bft) 95,92 %
20.01.2023 02:08 0,3 C 0,0 C -2,2 C 97 % 1011,5 hPa 0,0 l/m 0 min 0 min 0 W/m 6,4 km/h (2 Bft) 97,87 %
20.01.2023 02:10 0,3 C 0,0 C -2,2 C 97 % 1011,6 hPa 0,0 l/m 0 min 0 min 0 W/m 6,4 km/h (2 Bft) 97,87 %
20.01.2023 02:12 0,3 C 0,0 C -2,2 C 97 % 1011,7 hPa 0,0 l/m 0 min 0 min 0 W/m 6,4 km/h (2 Bft) 97,87 %
20.01.2023 02:14 0,3 C 0,0 C -2,2 C 97 % 1011,7 hPa 0,0 l/m 0 min 0 min 0 W/m 16,1 km/h (3 Bft) 97,87 %
20.01.2023 02:16 0,4 C 0,0 C -2,2 C 97 % 1011,7 hPa 0,0 l/m 0 min 0 min 0 W/m 9,7 km/h (2 Bft) 95,12 %
20.01.2023 02:18 0,4 C 0,0 C -2,2 C 97 % 1011,8 hPa 0,0 l/m 0 min 0 min 0 W/m 9,7 km/h (2 Bft) 97,87 %
20.01.2023 02:20 0,4 C 0,0 C -2,2 C 97 % 1011,8 hPa 0,0 l/m 0 min 0 min 0 W/m 6,4 km/h (2 Bft) 97,87 %
20.01.2023 02:22 0,4 C 0,0 C -1,7 C 97 % 1011,9 hPa 0,0 l/m 0 min 0 min 0 W/m 16,1 km/h (3 Bft) 97,87 %
20.01.2023 02:24 0,4 C 0,0 C -2,2 C 97 % 1011,9 hPa 0,0 l/m 0 min 0 min 0 W/m 6,4 km/h (2 Bft) 95,74 %
20.01.2023 02:26 0,4 C 0,0 C -1,7 C 97 % 1011,9 hPa 0,0 l/m 0 min 0 min 0 W/m 12,9 km/h (3 Bft) 97,83 %
20.01.2023 02:28 0,4 C 0,0 C -2,2 C 97 % 1011,9 hPa 0,0 l/m 0 min 0 min 0 W/m 3,2 km/h (1 Bft) 97,87 %
20.01.2023 02:30 0,4 C 0,0 C -2,2 C 97 % 1011,9 hPa 0,0 l/m 0 min 0 min 0 W/m 3,2 km/h (1 Bft) 35,48 %
20.01.2023 02:32 0,4 C 0,0 C -1,7 C 97 % 1011,9 hPa 0,0 l/m 0 min 0 min 0 W/m 3,2 km/h (1 Bft) 97,87 %
20.01.2023 02:34 0,3 C 0,0 C -2,2 C 97 % 1012,0 hPa 0,0 l/m 0 min 0 min 0 W/m 6,4 km/h (2 Bft) 97,87 %
20.01.2023 02:36 0,4 C 0,0 C -2,2 C 97 % 1012,0 hPa 0,0 l/m 0 min 0 min 0 W/m 3,2 km/h (1 Bft) 97,87 %
20.01.2023 02:38 0,3 C 0,0 C -1,7 C 97 % 1012,0 hPa 0,0 l/m 0 min 0 min 0 W/m 6,4 km/h (2 Bft) 100,00 %
20.01.2023 02:40 0,3 C 0,0 C -2,2 C 97 % 1012,0 hPa 0,0 l/m 0 min 0 min 0 W/m 6,4 km/h (2 Bft) 97,87 %
20.01.2023 02:42 0,3 C 0,0 C -2,2 C 97 % 1012,0 hPa 0,0 l/m 0 min 0 min 0 W/m 6,4 km/h (2 Bft) 97,87 %
20.01.2023 02:44 0,3 C 0,0 C -1,7 C 97 % 1012,0 hPa 0,0 l/m 0 min 0 min 0 W/m 6,4 km/h (2 Bft) 100,00 %
20.01.2023 02:46 0,3 C 0,0 C -2,2 C 97 % 1012,0 hPa 0,0 l/m 0 min 0 min 0 W/m 6,4 km/h (2 Bft) 100,00 %
20.01.2023 02:48 0,3 C 0,0 C -1,7 C 97 % 1012,1 hPa 0,0 l/m 0 min 0 min 0 W/m 6,4 km/h (2 Bft) 100,00 %
20.01.2023 02:50 0,3 C 0,0 C -1,7 C 97 % 1012,1 hPa 0,0 l/m 0 min 0 min 0 W/m 12,9 km/h (3 Bft) 100,00 %
20.01.2023 02:52 0,3 C 0,0 C -1,7 C 97 % 1012,2 hPa 0,0 l/m 0 min 0 min 0 W/m 9,7 km/h (2 Bft) 95,65 %
20.01.2023 02:54 0,3 C 0,0 C -1,7 C 97 % 1012,2 hPa 0,0 l/m 0 min 0 min 0 W/m 9,7 km/h (2 Bft) 100,00 %
20.01.2023 02:56 0,3 C 0,0 C -2,2 C 97 % 1012,3 hPa 0,0 l/m 0 min 0 min 0 W/m 6,4 km/h (2 Bft) 97,87 %
20.01.2023 02:58 0,3 C 0,0 C -2,2 C 97 % 1012,3 hPa 0,0 l/m 0 min 0 min 0 W/m 6,4 km/h (2 Bft) 100,00 %
20.01.2023 03:00 0,3 C 0,0 C -2,2 C 97 % 1012,3 hPa 0,0 l/m 0 min 0 min 0 W/m 0,0 km/h (0 Bft) 97,87 %
20.01.2023 03:02 0,3 C 0,0 C -1,7 C 97 % 1012,3 hPa 0,0 l/m 0 min 0 min 0 W/m 6,4 km/h (2 Bft) 100,00 %
20.01.2023 03:04 0,3 C 0,0 C -1,7 C 97 % 1012,3 hPa 0,0 l/m 0 min 0 min 0 W/m 6,4 km/h (2 Bft) 95,74 %
20.01.2023 03:06 0,3 C 0,0 C -1,7 C 97 % 1012,3 hPa 0,0 l/m 0 min 0 min 0 W/m 12,9 km/h (3 Bft) 96,55 %
20.01.2023 03:08 0,3 C 0,0 C -2,2 C 97 % 1012,3 hPa 0,0 l/m 0 min 0 min 0 W/m 6,4 km/h (2 Bft) 97,14 %
20.01.2023 03:10 0,3 C 0,0 C -1,7 C 97 % 1012,3 hPa 0,0 l/m 0 min 0 min 0 W/m 12,9 km/h (3 Bft) 97,87 %
20.01.2023 03:12 0,3 C 0,0 C -1,7 C 97 % 1012,3 hPa 0,0 l/m 0 min 0 min 0 W/m 12,9 km/h (3 Bft) 97,87 %
20.01.2023 03:14 0,3 C 0,0 C -1,7 C 97 % 1012,3 hPa 0,0 l/m 0 min 0 min 0 W/m 12,9 km/h (3 Bft) 95,74 %
20.01.2023 03:16 0,3 C 0,0 C -1,7 C 97 % 1012,3 hPa 0,0 l/m 0 min 0 min 0 W/m 6,4 km/h (2 Bft) 93,62 %
20.01.2023 03:18 0,3 C 0,0 C -1,7 C 97 % 1012,3 hPa 0,0 l/m 0 min 0 min 0 W/m 3,2 km/h (1 Bft) 95,74 %
20.01.2023 03:20 0,3 C 0,0 C -1,7 C 97 % 1012,3 hPa 0,0 l/m 0 min 0 min 0 W/m 6,4 km/h (2 Bft) 93,48 %
20.01.2023 03:22 0,3 C 0,0 C -1,7 C 97 % 1012,3 hPa 0,0 l/m 0 min 0 min 0 W/m 9,7 km/h (2 Bft) 91,49 %
20.01.2023 03:24 0,3 C 0,0 C -1,7 C 97 % 1012,3 hPa 0,0 l/m 0 min 0 min 0 W/m 3,2 km/h (1 Bft) 95,74 %
20.01.2023 03:26 0,3 C 0,0 C -1,7 C 97 % 1012,3 hPa 0,0 l/m 0 min 0 min 0 W/m 0,0 km/h (0 Bft) 95,74 %
20.01.2023 03:28 0,3 C 0,0 C -1,7 C 97 % 1012,3 hPa 0,0 l/m 0 min 0 min 0 W/m 0,0 km/h (0 Bft) 95,74 %
20.01.2023 03:30 0,3 C 0,0 C -1,7 C 97 % 1012,4 hPa 0,0 l/m 0 min 0 min 0 W/m 6,4 km/h (2 Bft) 95,74 %
20.01.2023 03:32 0,3 C 0,0 C -1,7 C 97 % 1012,4 hPa 0,0 l/m 0 min 0 min 0 W/m 9,7 km/h (2 Bft) 95,74 %
20.01.2023 03:34 0,3 C 0,0 C -1,7 C 97 % 1012,3 hPa 0,0 l/m 0 min 0 min 0 W/m 3,2 km/h (1 Bft) 95,65 %
20.01.2023 03:36 0,3 C 0,0 C -1,7 C 97 % 1012,3 hPa 0,0 l/m 0 min 0 min 0 W/m 6,4 km/h (2 Bft) 93,62 %
20.01.2023 03:38 0,3 C 0,0 C -1,7 C 97 % 1012,4 hPa 0,0 l/m 0 min 0 min 0 W/m 6,4 km/h (2 Bft) 95,74 %
20.01.2023 03:40 0,3 C 0,0 C -1,7 C 97 % 1012,4 hPa 0,0 l/m 0 min 0 min 0 W/m 6,4 km/h (2 Bft) 95,74 %
20.01.2023 03:42 0,3 C 0,0 C -1,7 C 97 % 1012,4 hPa 0,0 l/m 0 min 0 min 0 W/m 6,4 km/h (2 Bft) 97,87 %
20.01.2023 03:44 0,3 C 0,0 C -1,7 C 97 % 1012,4 hPa 0,0 l/m 0 min 0 min 0 W/m 6,4 km/h (2 Bft) 97,87 %
20.01.2023 03:46 0,3 C 0,0 C -1,7 C 97 % 1012,4 hPa 0,0 l/m 0 min 0 min 0 W/m 3,2 km/h (1 Bft) 97,87 %
20.01.2023 03:48 0,3 C 0,0 C -1,7 C 97 % 1012,3 hPa 0,0 l/m 0 min 0 min 0 W/m 0,0 km/h (0 Bft) 97,83 %
20.01.2023 03:50 0,3 C 0,0 C -1,7 C 97 % 1012,3 hPa 0,0 l/m 0 min 0 min 0 W/m 6,4 km/h (2 Bft) 97,87 %
20.01.2023 03:52 0,3 C 0,0 C -1,7 C 97 % 1012,4 hPa 0,0 l/m 0 min 0 min 0 W/m 6,4 km/h (2 Bft) 97,87 %
20.01.2023 03:54 0,3 C 0,0 C -1,7 C 97 % 1012,4 hPa 0,0 l/m 0 min 0 min 0 W/m 6,4 km/h (2 Bft) 100,00 %
20.01.2023 03:56 0,3 C 0,0 C -1,7 C 97 % 1012,4 hPa 0,0 l/m 0 min 0 min 0 W/m 6,4 km/h (2 Bft) 97,87 %
20.01.2023 03:58 0,3 C 0,0 C -1,7 C 97 % 1012,4 hPa 0,0 l/m 0 min 0 min 0 W/m 6,4 km/h (2 Bft) 97,87 %
20.01.2023 04:00 0,3 C 0,0 C -1,7 C 97 % 1012,4 hPa 0,0 l/m 0 min 0 min 0 W/m 3,2 km/h (1 Bft) 100,00 %
20.01.2023 04:02 0,3 C 0,0 C -1,7 C 97 % 1012,3 hPa 0,0 l/m 0 min 0 min 0 W/m 3,2 km/h (1 Bft) 100,00 %
20.01.2023 04:04 0,3 C 0,0 C -1,7 C 97 % 1012,4 hPa 0,0 l/m 0 min 0 min 0 W/m 3,2 km/h (1 Bft) 97,87 %
20.01.2023 04:06 0,3 C 0,0 C -1,7 C 97 % 1012,5 hPa 0,0 l/m 0 min 0 min 0 W/m 3,2 km/h (1 Bft) 98,31 %
20.01.2023 04:08 0,3 C 0,0 C -1,7 C 97 % 1012,5 hPa 0,0 l/m 0 min 0 min 0 W/m 6,4 km/h (2 Bft) 100,00 %
20.01.2023 04:10 0,3 C 0,0 C -1,7 C 97 % 1012,5 hPa 0,0 l/m 0 min 0 min 0 W/m 6,4 km/h (2 Bft) 100,00 %
20.01.2023 04:12 0,3 C 0,0 C -1,7 C 97 % 1012,6 hPa 0,0 l/m 0 min 0 min 0 W/m 6,4 km/h (2 Bft) 100,00 %
20.01.2023 04:14 0,3 C 0,0 C -1,7 C 97 % 1012,6 hPa 0,0 l/m 0 min 0 min 0 W/m 12,9 km/h (3 Bft) 100,00 %
20.01.2023 04:16 0,3 C 0,0 C -1,7 C 97 % 1012,7 hPa 0,0 l/m 0 min 0 min 0 W/m 9,7 km/h (2 Bft) 100,00 %
20.01.2023 04:18 0,3 C 0,0 C -1,7 C 97 % 1012,6 hPa 0,0 l/m 0 min 0 min 0 W/m 12,9 km/h (3 Bft) 100,00 %
20.01.2023 04:20 0,4 C 0,0 C -1,7 C 97 % 1012,6 hPa 0,0 l/m 0 min 0 min 0 W/m 9,7 km/h (2 Bft) 100,00 %
20.01.2023 04:22 0,4 C 0,0 C -1,7 C 97 % 1012,6 hPa 0,0 l/m 0 min 0 min 0 W/m 3,2 km/h (1 Bft) 100,00 %
20.01.2023 04:24 0,4 C 0,0 C -1,7 C 97 % 1012,6 hPa 0,0 l/m 0 min 0 min 0 W/m 3,2 km/h (1 Bft) 100,00 %
20.01.2023 04:26 0,4 C 0,0 C -1,7 C 97 % 1012,6 hPa 0,0 l/m 0 min 0 min 0 W/m 3,2 km/h (1 Bft) 95,74 %
20.01.2023 04:28 0,4 C 0,0 C -1,7 C 97 % 1012,7 hPa 0,0 l/m 0 min 0 min 0 W/m 3,2 km/h (1 Bft) 100,00 %
20.01.2023 04:30 0,4 C 0,0 C -1,7 C 97 % 1012,7 hPa 0,0 l/m 0 min 0 min 0 W/m 3,2 km/h (1 Bft) 100,00 %
20.01.2023 04:32 0,4 C 0,0 C -1,7 C 97 % 1012,7 hPa 0,0 l/m 0 min 0 min 0 W/m 3,2 km/h (1 Bft) 100,00 %
20.01.2023 04:34 0,4 C 0,0 C -1,7 C 97 % 1012,7 hPa 0,0 l/m 0 min 0 min 0 W/m 0,0 km/h (0 Bft) 97,87 %
20.01.2023 04:36 0,4 C 0,0 C -1,7 C 97 % 1012,7 hPa 0,0 l/m 0 min 0 min 0 W/m 3,2 km/h (1 Bft) 97,87 %
20.01.2023 04:38 0,4 C 0,0 C -1,7 C 97 % 1012,8 hPa 0,0 l/m 0 min 0 min 0 W/m 0,0 km/h (0 Bft) 100,00 %
20.01.2023 04:40 0,4 C 0,0 C -1,7 C 97 % 1012,8 hPa 0,0 l/m 0 min 0 min 0 W/m 3,2 km/h (1 Bft) 100,00 %
20.01.2023 04:42 0,4 C 0,0 C -1,7 C 97 % 1012,7 hPa 0,0 l/m 0 min 0 min 0 W/m 6,4 km/h (2 Bft) 97,87 %
20.01.2023 04:44 0,4 C 0,0 C -1,7 C 97 % 1012,7 hPa 0,0 l/m 0 min 0 min 0 W/m 6,4 km/h (2 Bft) 100,00 %
20.01.2023 04:46 0,4 C 0,0 C -1,7 C 97 % 1012,7 hPa 0,0 l/m 0 min 0 min 0 W/m 6,4 km/h (2 Bft) 100,00 %
20.01.2023 04:48 0,4 C 0,0 C -1,7 C 97 % 1012,7 hPa 0,0 l/m 0 min 0 min 0 W/m 3,2 km/h (1 Bft) 95,74 %
20.01.2023 04:50 0,4 C -0,6 C -1,7 C 97 % 1012,7 hPa 0,0 l/m 0 min 0 min 0 W/m 6,4 km/h (2 Bft) 97,87 %
20.01.2023 04:52 0,4 C -0,6 C -1,7 C 97 % 1012,7 hPa 0,0 l/m 0 min 0 min 0 W/m 0,0 km/h (0 Bft) 97,87 %
20.01.2023 04:54 0,3 C -0,6 C -2,2 C 97 % 1012,7 hPa 0,0 l/m 0 min 0 min 0 W/m 0,0 km/h (0 Bft) 97,67 %
20.01.2023 04:56 0,3 C -0,6 C -2,2 C 97 % 1012,7 hPa 0,0 l/m 0 min 0 min 0 W/m 0,0 km/h (0 Bft) 97,87 %
20.01.2023 04:58 0,3 C -0,6 C -2,2 C 97 % 1012,7 hPa 0,0 l/m 0 min 0 min 0 W/m 0,0 km/h (0 Bft) 96,00 %
20.01.2023 05:00 0,3 C -0,6 C -2,2 C 97 % 1012,7 hPa 0,0 l/m 0 min 0 min 0 W/m 0,0 km/h (0 Bft) 91,49 %
20.01.2023 05:02 0,3 C -0,6 C -2,2 C 97 % 1012,7 hPa 0,0 l/m 0 min 0 min 0 W/m 0,0 km/h (0 Bft) 93,62 %
20.01.2023 05:04 0,3 C -0,6 C -2,2 C 97 % 1012,8 hPa 0,0 l/m 0 min 0 min 0 W/m 0,0 km/h (0 Bft) 91,49 %
20.01.2023 05:06 0,2 C -0,6 C -2,2 C 97 % 1012,8 hPa 0,0 l/m 0 min 0 min 0 W/m 0,0 km/h (0 Bft) 95,65 %
20.01.2023 05:08 0,2 C -0,6 C -2,2 C 97 % 1012,8 hPa 0,0 l/m 0 min 0 min 0 W/m 0,0 km/h (0 Bft) 95,74 %
20.01.2023 05:10 0,2 C -0,6 C -2,2 C 97 % 1012,8 hPa 0,0 l/m 0 min 0 min 0 W/m 0,0 km/h (0 Bft) 93,62 %
20.01.2023 05:12 0,2 C -0,6 C -2,2 C 97 % 1012,7 hPa 0,0 l/m 0 min 0 min 0 W/m 0,0 km/h (0 Bft) 91,49 %
20.01.2023 05:14 0,2 C -1,1 C -2,2 C 97 % 1012,8 hPa 0,0 l/m 0 min 0 min 0 W/m 0,0 km/h (0 Bft) 93,62 %
20.01.2023 05:16 0,1 C -1,1 C -2,2 C 96 % 1012,8 hPa 0,0 l/m 0 min 0 min 0 W/m 0,0 km/h (0 Bft) 93,62 %
20.01.2023 05:18 0,1 C -1,1 C -2,2 C 96 % 1012,8 hPa 0,0 l/m 0 min 0 min 0 W/m 0,0 km/h (0 Bft) 93,62 %
20.01.2023 05:20 0,1 C -1,1 C -2,2 C 96 % 1012,8 hPa 0,0 l/m 0 min 0 min 0 W/m 0,0 km/h (0 Bft) 95,65 %
20.01.2023 05:22 0,1 C -1,1 C -2,2 C 96 % 1012,8 hPa 0,0 l/m 0 min 0 min 0 W/m 0,0 km/h (0 Bft) 93,62 %
20.01.2023 05:24 0,1 C -1,1 C -2,2 C 96 % 1012,8 hPa 0,0 l/m 0 min 0 min 0 W/m 0,0 km/h (0 Bft) 95,74 %
20.01.2023 05:26 0,1 C -1,1 C -2,2 C 96 % 1012,8 hPa 0,0 l/m 0 min 0 min 0 W/m 0,0 km/h (0 Bft) 95,74 %
20.01.2023 05:28 0,1 C -1,1 C -2,2 C 96 % 1012,8 hPa 0,0 l/m 0 min 0 min 0 W/m 0,0 km/h (0 Bft) 97,87 %
20.01.2023 05:30 0,1 C -1,1 C -2,2 C 96 % 1012,8 hPa 0,0 l/m 0 min 0 min 0 W/m 0,0 km/h (0 Bft) 95,74 %
20.01.2023 05:32 0,1 C -1,1 C -2,2 C 96 % 1012,8 hPa 0,0 l/m 0 min 0 min 0 W/m 0,0 km/h (0 Bft) 93,62 %
20.01.2023 05:34 0,0 C -1,1 C -2,2 C 96 % 1012,9 hPa 0,0 l/m 0 min 0 min 0 W/m 0,0 km/h (0 Bft) 97,83 %
20.01.2023 05:36 0,0 C -0,6 C -2,2 C 96 % 1012,9 hPa 0,0 l/m 0 min 0 min 0 W/m 0,0 km/h (0 Bft) 91,49 %
20.01.2023 05:38 0,0 C -0,6 C -2,2 C 96 % 1012,9 hPa 0,0 l/m 0 min 0 min 0 W/m 0,0 km/h (0 Bft) 93,62 %
20.01.2023 05:40 0,1 C -0,6 C -2,2 C 96 % 1012,9 hPa 0,0 l/m 0 min 0 min 0 W/m 0,0 km/h (0 Bft) 95,74 %
20.01.2023 05:42 0,1 C -0,6 C -2,2 C 96 % 1013,0 hPa 0,0 l/m 0 min 0 min 0 W/m 6,4 km/h (2 Bft) 95,74 %
20.01.2023 05:44 0,1 C -0,6 C -2,2 C 96 % 1012,9 hPa 0,0 l/m 0 min 0 min 0 W/m 12,9 km/h (3 Bft) 95,74 %
20.01.2023 05:46 0,1 C -0,6 C -2,2 C 96 % 1013,0 hPa 0,0 l/m 0 min 0 min 0 W/m 25,7 km/h (4 Bft) 97,87 %
20.01.2023 05:48 0,2 C 0,0 C -2,2 C 97 % 1013,0 hPa 0,0 l/m 0 min 0 min 0 W/m 6,4 km/h (2 Bft) 97,83 %
20.01.2023 05:50 0,2 C 0,0 C -1,7 C 97 % 1013,1 hPa 0,0 l/m 0 min 0 min 0 W/m 12,9 km/h (3 Bft) 97,87 %
20.01.2023 05:52 0,2 C 0,0 C -1,7 C 97 % 1013,0 hPa 0,0 l/m 0 min 0 min 0 W/m 6,4 km/h (2 Bft) 95,74 %
20.01.2023 05:54 0,3 C 0,0 C -1,7 C 97 % 1013,0 hPa 0,0 l/m 0 min 0 min 0 W/m 3,2 km/h (1 Bft) 97,87 %
20.01.2023 05:56 0,3 C 0,0 C -1,7 C 97 % 1013,0 hPa 0,0 l/m 0 min 0 min 0 W/m 6,4 km/h (2 Bft) 97,87 %
20.01.2023 05:58 0,3 C 0,0 C -1,7 C 97 % 1013,0 hPa 0,0 l/m 0 min 0 min 0 W/m 6,4 km/h (2 Bft) 97,87 %
20.01.2023 06:00 0,3 C 0,0 C -1,7 C 97 % 1013,1 hPa 0,0 l/m 0 min 0 min 0 W/m 16,1 km/h (3 Bft) 93,62 %
20.01.2023 06:02 0,3 C 0,0 C -1,7 C 97 % 1013,1 hPa 0,0 l/m 0 min 0 min 0 W/m 16,1 km/h (3 Bft) 93,48 %
20.01.2023 06:04 0,3 C 0,0 C -1,7 C 97 % 1013,2 hPa 0,0 l/m 0 min 0 min 0 W/m 12,9 km/h (3 Bft) 97,92 %
20.01.2023 06:07 0,3 C 0,0 C -1,7 C 97 % 1013,1 hPa 0,0 l/m 0 min 0 min 0 W/m 12,9 km/h (3 Bft) 98,57 %
20.01.2023 06:08 0,3 C 0,0 C -1,7 C 97 % 1013,1 hPa 0,0 l/m 0 min 0 min 0 W/m 9,7 km/h (2 Bft) 100,00 %
20.01.2023 06:10 0,3 C 0,0 C -1,7 C 97 % 1013,2 hPa 0,0 l/m 0 min 0 min 0 W/m 9,7 km/h (2 Bft) 100,00 %
20.01.2023 06:12 0,3 C 0,0 C -1,7 C 97 % 1013,2 hPa 0,0 l/m 0 min 0 min 0 W/m 3,2 km/h (1 Bft) 41,18 %
20.01.2023 06:14 0,3 C 0,0 C -1,7 C 97 % 1013,2 hPa 0,0 l/m 0 min 0 min 0 W/m 6,4 km/h (2 Bft) 97,83 %
20.01.2023 06:16 0,3 C 0,0 C -1,7 C 97 % 1013,2 hPa 0,0 l/m 0 min 0 min 0 W/m 6,4 km/h (2 Bft) 100,00 %
20.01.2023 06:18 0,3 C 0,0 C -1,7 C 97 % 1013,2 hPa 0,0 l/m 0 min 0 min 0 W/m 9,7 km/h (2 Bft) 100,00 %
20.01.2023 06:20 0,3 C 0,0 C -1,7 C 97 % 1013,2 hPa 0,0 l/m 0 min 0 min 0 W/m 12,9 km/h (3 Bft) 97,87 %
20.01.2023 06:22 0,3 C 0,0 C -1,7 C 97 % 1013,2 hPa 0,0 l/m 0 min 0 min 0 W/m 6,4 km/h (2 Bft) 97,87 %
20.01.2023 06:24 0,3 C 0,0 C -1,7 C 97 % 1013,2 hPa 0,0 l/m 0 min 0 min 0 W/m 6,4 km/h (2 Bft) 100,00 %
20.01.2023 06:26 0,3 C 0,0 C -1,7 C 97 % 1013,3 hPa 0,0 l/m 0 min 0 min 0 W/m 3,2 km/h (1 Bft) 97,87 %
20.01.2023 06:28 0,3 C 0,0 C -1,7 C 97 % 1013,2 hPa 0,0 l/m 0 min 0 min 0 W/m 9,7 km/h (2 Bft) 100,00 %
20.01.2023 06:30 0,3 C 0,0 C -1,7 C 97 % 1013,2 hPa 0,0 l/m 0 min 0 min 0 W/m 12,9 km/h (3 Bft) 100,00 %
20.01.2023 06:32 0,3 C 0,0 C -1,7 C 97 % 1013,2 hPa 0,0 l/m 0 min 0 min 0 W/m 6,4 km/h (2 Bft) 97,87 %
20.01.2023 06:34 0,3 C 0,0 C -1,7 C 97 % 1013,2 hPa 0,0 l/m 0 min 0 min 0 W/m 9,7 km/h (2 Bft) 100,00 %
20.01.2023 06:36 0,3 C 0,0 C -1,7 C 97 % 1013,2 hPa 0,0 l/m 0 min 0 min 0 W/m 6,4 km/h (2 Bft) 100,00 %
20.01.2023 06:38 0,3 C 0,0 C -1,7 C 97 % 1013,2 hPa 0,0 l/m 0 min 0 min 0 W/m 12,9 km/h (3 Bft) 93,62 %
20.01.2023 06:40 0,3 C 0,0 C -1,7 C 97 % 1013,2 hPa 0,0 l/m 0 min 0 min 0 W/m 12,9 km/h (3 Bft) 100,00 %
20.01.2023 06:42 0,3 C 0,0 C -1,7 C 97 % 1013,2 hPa 0,0 l/m 0 min 0 min 0 W/m 9,7 km/h (2 Bft) 97,83 %
20.01.2023 06:44 0,3 C 0,0 C -1,7 C 97 % 1013,2 hPa 0,0 l/m 0 min 0 min 0 W/m 3,2 km/h (1 Bft) 97,87 %
20.01.2023 06:46 0,4 C 0,0 C -1,7 C 97 % 1013,3 hPa 0,0 l/m 0 min 0 min 0 W/m 3,2 km/h (1 Bft) 95,74 %
20.01.2023 06:48 0,4 C 0,0 C -1,7 C 97 % 1013,3 hPa 0,0 l/m 0 min 0 min 0 W/m 3,2 km/h (1 Bft) 97,87 %
20.01.2023 06:50 0,4 C 0,0 C -1,7 C 97 % 1013,3 hPa 0,0 l/m 0 min 0 min 0 W/m 6,4 km/h (2 Bft) 95,74 %
20.01.2023 06:52 0,4 C 0,0 C -1,7 C 97 % 1013,4 hPa 0,0 l/m 0 min 0 min 0 W/m 6,4 km/h (2 Bft) 97,87 %
20.01.2023 06:54 0,4 C 0,0 C -1,7 C 97 % 1013,4 hPa 0,0 l/m 0 min 0 min 0 W/m 9,7 km/h (2 Bft) 97,87 %
20.01.2023 06:56 0,4 C 0,0 C -1,7 C 97 % 1013,4 hPa 0,0 l/m 0 min 0 min 0 W/m 6,4 km/h (2 Bft) 97,83 %
20.01.2023 06:58 0,4 C 0,0 C -1,7 C 97 % 1013,5 hPa 0,0 l/m 0 min 0 min 0 W/m 6,4 km/h (2 Bft) 97,87 %
20.01.2023 07:00 0,4 C 0,0 C -1,7 C 97 % 1013,5 hPa 0,0 l/m 0 min 0 min 0 W/m 19,3 km/h (3 Bft) 93,62 %
20.01.2023 07:02 0,4 C 0,0 C -1,7 C 97 % 1013,5 hPa 0,0 l/m 0 min 0 min 0 W/m 6,4 km/h (2 Bft) 93,62 %
20.01.2023 07:04 0,4 C 0,0 C -1,7 C 97 % 1013,6 hPa 0,0 l/m 0 min 0 min 0 W/m 6,4 km/h (2 Bft) 97,87 %
20.01.2023 07:06 0,4 C 0,0 C -1,7 C 97 % 1013,6 hPa 0,0 l/m 0 min 0 min 0 W/m 6,4 km/h (2 Bft) 97,87 %
20.01.2023 07:08 0,4 C 0,0 C -1,7 C 97 % 1013,5 hPa 0,0 l/m 0 min 0 min 0 W/m 6,4 km/h (2 Bft) 97,87 %
20.01.2023 07:10 0,4 C 0,0 C -1,7 C 97 % 1013,6 hPa 0,0 l/m 0 min 0 min 0 W/m 0,0 km/h (0 Bft) 100,00 %
20.01.2023 07:12 0,4 C 0,0 C -1,7 C 97 % 1013,6 hPa 0,0 l/m 0 min 0 min 0 W/m 0,0 km/h (0 Bft) 95,74 %
20.01.2023 07:14 0,4 C 0,0 C -1,7 C 97 % 1013,6 hPa 0,0 l/m 0 min 0 min 0 W/m 0,0 km/h (0 Bft) 97,87 %
20.01.2023 07:16 0,4 C 0,0 C -1,7 C 97 % 1013,6 hPa 0,0 l/m 0 min 0 min 0 W/m 3,2 km/h (1 Bft) 97,87 %
20.01.2023 07:18 0,4 C 0,0 C -1,7 C 97 % 1013,7 hPa 0,0 l/m 0 min 0 min 0 W/m 6,4 km/h (2 Bft) 95,74 %
20.01.2023 07:20 0,4 C 0,0 C -1,7 C 97 % 1013,7 hPa 0,0 l/m 0 min 0 min 0 W/m 3,2 km/h (1 Bft) 100,00 %
20.01.2023 07:22 0,4 C 0,0 C -1,7 C 97 % 1013,7 hPa 0,0 l/m 0 min 0 min 0 W/m 6,4 km/h (2 Bft) 100,00 %
20.01.2023 07:24 0,4 C 0,0 C -1,7 C 97 % 1013,8 hPa 0,0 l/m 0 min 0 min 0 W/m 3,2 km/h (1 Bft) 97,83 %
20.01.2023 07:26 0,4 C 0,0 C -1,7 C 96 % 1013,8 hPa 0,0 l/m 0 min 0 min 0 W/m 3,2 km/h (1 Bft) 100,00 %
20.01.2023 07:28 0,4 C 0,0 C -1,7 C 96 % 1013,8 hPa 0,0 l/m 0 min 0 min 0 W/m 3,2 km/h (1 Bft) 97,87 %
20.01.2023 07:30 0,4 C 0,0 C -1,7 C 96 % 1013,9 hPa 0,0 l/m 0 min 0 min 0 W/m 6,4 km/h (2 Bft) 97,87 %
20.01.2023 07:32 0,4 C 0,0 C -1,7 C 96 % 1013,9 hPa 0,0 l/m 0 min 0 min 0 W/m 3,2 km/h (1 Bft) 100,00 %
20.01.2023 07:34 0,4 C 0,0 C -1,7 C 96 % 1013,8 hPa 0,0 l/m 0 min 0 min 0 W/m 0,0 km/h (0 Bft) 97,87 %
20.01.2023 07:36 0,4 C 0,0 C -1,7 C 96 % 1013,9 hPa 0,0 l/m 0 min 0 min 0 W/m 6,4 km/h (2 Bft) 100,00 %
20.01.2023 07:38 0,4 C 0,0 C -1,7 C 96 % 1013,8 hPa 0,0 l/m 0 min 0 min 0 W/m 6,4 km/h (2 Bft) 100,00 %
20.01.2023 07:40 0,4 C 0,0 C -1,7 C 96 % 1013,9 hPa 0,0 l/m 0 min 0 min 0 W/m 9,7 km/h (2 Bft) 97,87 %
20.01.2023 07:42 0,4 C 0,0 C -1,7 C 96 % 1013,9 hPa 0,0 l/m 0 min 0 min 0 W/m 16,1 km/h (3 Bft) 56,52 %
20.01.2023 07:44 0,4 C 0,0 C -1,7 C 96 % 1013,9 hPa 0,0 l/m 0 min 0 min 0 W/m 16,1 km/h (3 Bft) 97,87 %
20.01.2023 07:46 0,4 C 0,0 C -1,7 C 96 % 1013,9 hPa 0,0 l/m 0 min 0 min 0 W/m 16,1 km/h (3 Bft) 95,74 %
20.01.2023 07:48 0,4 C 0,0 C -1,7 C 96 % 1013,9 hPa 0,0 l/m 0 min 0 min 0 W/m 19,3 km/h (3 Bft) 97,87 %
20.01.2023 07:50 0,3 C 0,0 C -1,7 C 96 % 1013,9 hPa 0,0 l/m 0 min 0 min 0 W/m 12,9 km/h (3 Bft) 95,74 %
20.01.2023 07:52 0,3 C 0,0 C -1,7 C 96 % 1013,9 hPa 0,0 l/m 0 min 0 min 0 W/m 19,3 km/h (3 Bft) 97,83 %
20.01.2023 07:54 0,3 C 0,0 C -1,7 C 96 % 1013,9 hPa 0,0 l/m 0 min 0 min 0 W/m 12,9 km/h (3 Bft) 97,87 %
20.01.2023 07:56 0,3 C 0,0 C -1,7 C 96 % 1013,9 hPa 0,0 l/m 0 min 0 min 0 W/m 6,4 km/h (2 Bft) 97,87 %
20.01.2023 07:58 0,3 C 0,0 C -1,7 C 96 % 1013,9 hPa 0,0 l/m 0 min 0 min 0 W/m 9,7 km/h (2 Bft) 95,74 %
20.01.2023 08:00 0,3 C 0,0 C -1,7 C 96 % 1013,9 hPa 0,0 l/m 0 min 0 min 0 W/m 12,9 km/h (3 Bft) 95,74 %
20.01.2023 08:02 0,3 C 0,0 C -1,7 C 96 % 1014,0 hPa 0,0 l/m 0 min 0 min 0 W/m 9,7 km/h (2 Bft) 95,74 %
20.01.2023 08:04 0,3 C 0,0 C -1,7 C 96 % 1014,0 hPa 0,0 l/m 0 min 0 min 0 W/m 12,9 km/h (3 Bft) 93,62 %
20.01.2023 08:06 0,3 C 0,0 C -1,7 C 96 % 1014,0 hPa 0,0 l/m 0 min 0 min 0 W/m 9,7 km/h (2 Bft) 95,65 %
20.01.2023 08:08 0,3 C 0,0 C -1,7 C 96 % 1014,0 hPa 0,0 l/m 0 min 0 min 0 W/m 9,7 km/h (2 Bft) 95,74 %
20.01.2023 08:10 0,3 C 0,0 C -1,7 C 96 % 1014,0 hPa 0,0 l/m 0 min 0 min 0 W/m 12,9 km/h (3 Bft) 93,62 %
20.01.2023 08:12 0,3 C 0,0 C -1,7 C 96 % 1014,0 hPa 0,0 l/m 0 min 0 min 0 W/m 12,9 km/h (3 Bft) 95,74 %
20.01.2023 08:14 0,4 C 0,0 C -1,7 C 96 % 1014,1 hPa 0,0 l/m 0 min 0 min 0 W/m 9,7 km/h (2 Bft) 95,74 %
20.01.2023 08:16 0,4 C 0,0 C -1,7 C 96 % 1014,0 hPa 0,0 l/m 0 min 0 min 0 W/m 12,9 km/h (3 Bft) 95,74 %
20.01.2023 08:18 0,4 C 0,0 C -1,7 C 96 % 1014,0 hPa 0,0 l/m 0 min 0 min 0 W/m 9,7 km/h (2 Bft) 95,74 %
20.01.2023 08:20 0,4 C 0,0 C -1,7 C 96 % 1014,1 hPa 0,0 l/m 0 min 0 min 0 W/m 16,1 km/h (3 Bft) 93,48 %
20.01.2023 08:22 0,4 C 0,0 C -1,7 C 96 % 1014,1 hPa 0,0 l/m 0 min 0 min 0 W/m 3,2 km/h (1 Bft) 95,74 %
20.01.2023 08:24 0,4 C 0,0 C -1,7 C 96 % 1014,1 hPa 0,0 l/m 0 min 0 min 0 W/m 12,9 km/h (3 Bft) 95,74 %
20.01.2023 08:26 0,4 C 0,0 C -1,7 C 96 % 1014,2 hPa 0,0 l/m 0 min 0 min 0 W/m 16,1 km/h (3 Bft) 95,74 %
20.01.2023 08:28 0,4 C 0,0 C -1,7 C 96 % 1014,2 hPa 0,0 l/m 0 min 0 min 0 W/m 6,4 km/h (2 Bft) 95,74 %
20.01.2023 08:30 0,4 C 0,0 C -1,7 C 96 % 1014,3 hPa 0,0 l/m 0 min 0 min 0 W/m 12,9 km/h (3 Bft) 97,87 %
20.01.2023 08:32 0,4 C 0,0 C -1,7 C 96 % 1014,3 hPa 0,0 l/m 0 min 0 min 0 W/m 12,9 km/h (3 Bft) 97,83 %
20.01.2023 08:34 0,4 C 0,0 C -1,7 C 96 % 1014,3 hPa 0,0 l/m 0 min 0 min 0 W/m 0,0 km/h (0 Bft) 95,74 %
20.01.2023 08:36 0,4 C 0,0 C -1,7 C 96 % 1014,3 hPa 0,0 l/m 0 min 0 min 0 W/m 6,4 km/h (2 Bft) 100,00 %
20.01.2023 08:38 0,4 C 0,0 C -1,7 C 96 % 1014,4 hPa 0,0 l/m 0 min 0 min 1 W/m 12,9 km/h (3 Bft) 95,74 %
20.01.2023 08:40 0,5 C 0,0 C -1,7 C 96 % 1014,4 hPa 0,0 l/m 0 min 0 min 5 W/m 6,4 km/h (2 Bft) 95,74 %
20.01.2023 08:42 0,5 C 0,0 C -1,7 C 96 % 1014,4 hPa 0,0 l/m 0 min 0 min 5 W/m 9,7 km/h (2 Bft) 97,87 %
20.01.2023 08:44 0,5 C 0,0 C -1,7 C 96 % 1014,5 hPa 0,0 l/m 0 min 0 min 8 W/m 9,7 km/h (2 Bft) 91,49 %
20.01.2023 08:46 0,5 C 0,0 C -1,7 C 96 % 1014,5 hPa 0,0 l/m 0 min 0 min 10 W/m 9,7 km/h (2 Bft) 95,65 %
20.01.2023 08:48 0,5 C 0,0 C -1,7 C 96 % 1014,5 hPa 0,0 l/m 0 min 0 min 11 W/m 6,4 km/h (2 Bft) 95,74 %
20.01.2023 08:50 0,6 C 0,0 C -1,7 C 96 % 1014,5 hPa 0,0 l/m 0 min 0 min 11 W/m 6,4 km/h (2 Bft) 93,62 %
20.01.2023 08:52 0,6 C 0,0 C -1,7 C 96 % 1014,5 hPa 0,0 l/m 0 min 0 min 12 W/m 9,7 km/h (2 Bft) 97,87 %
20.01.2023 08:54 0,6 C 0,0 C -1,7 C 96 % 1014,5 hPa 0,0 l/m 0 min 0 min 14 W/m 6,4 km/h (2 Bft) 97,87 %
20.01.2023 08:56 0,6 C 0,0 C -1,1 C 96 % 1014,5 hPa 0,0 l/m 0 min 0 min 14 W/m 3,2 km/h (1 Bft) 97,87 %
20.01.2023 08:58 0,6 C 0,0 C -1,1 C 96 % 1014,6 hPa 0,0 l/m 0 min 0 min 15 W/m 12,9 km/h (3 Bft) 97,87 %
20.01.2023 09:00 0,6 C 0,0 C -1,1 C 96 % 1014,6 hPa 0,0 l/m 0 min 0 min 14 W/m 9,7 km/h (2 Bft) 95,65 %
20.01.2023 09:02 0,6 C 0,0 C -1,1 C 96 % 1014,6 hPa 0,0 l/m 0 min 0 min 18 W/m 12,9 km/h (3 Bft) 97,87 %
20.01.2023 09:04 0,6 C 0,0 C -1,1 C 96 % 1014,6 hPa 0,0 l/m 0 min 0 min 19 W/m 12,9 km/h (3 Bft) 97,87 %
20.01.2023 09:06 0,6 C 0,0 C -1,1 C 96 % 1014,6 hPa 0,0 l/m 0 min 0 min 19 W/m 16,1 km/h (3 Bft) 97,87 %
20.01.2023 09:08 0,6 C 0,0 C -1,1 C 96 % 1014,6 hPa 0,0 l/m 0 min 0 min 19 W/m 12,9 km/h (3 Bft) 95,74 %
20.01.2023 09:10 0,6 C 0,6 C -1,1 C 96 % 1014,6 hPa 0,0 l/m 0 min 0 min 20 W/m 16,1 km/h (3 Bft) 100,00 %
20.01.2023 09:12 0,6 C 0,6 C -1,1 C 96 % 1014,6 hPa 0,0 l/m 0 min 0 min 22 W/m 12,9 km/h (3 Bft) 100,00 %
20.01.2023 09:14 0,6 C 0,6 C -1,1 C 96 % 1014,6 hPa 0,0 l/m 0 min 0 min 20 W/m 16,1 km/h (3 Bft) 100,00 %
20.01.2023 09:16 0,6 C 0,0 C -1,1 C 96 % 1014,6 hPa 0,0 l/m 0 min 0 min 19 W/m 16,1 km/h (3 Bft) 95,74 %
20.01.2023 09:18 0,6 C 0,0 C -1,1 C 96 % 1014,8 hPa 0,0 l/m 0 min 0 min 20 W/m 16,1 km/h (3 Bft) 100,00 %
20.01.2023 09:20 0,6 C 0,6 C -1,1 C 96 % 1014,7 hPa 0,0 l/m 0 min 0 min 22 W/m 16,1 km/h (3 Bft) 97,87 %
20.01.2023 09:22 0,6 C 0,6 C -1,1 C 96 % 1014,7 hPa 0,0 l/m 0 min 0 min 26 W/m 12,9 km/h (3 Bft) 97,87 %
20.01.2023 09:24 0,6 C 0,6 C -1,1 C 96 % 1014,8 hPa 0,0 l/m 0 min 0 min 32 W/m 16,1 km/h (3 Bft) 100,00 %
20.01.2023 09:26 0,6 C 0,6 C -1,1 C 96 % 1014,8 hPa 0,0 l/m 0 min 0 min 35 W/m 12,9 km/h (3 Bft) 100,00 %
20.01.2023 09:28 0,6 C 0,6 C -1,1 C 96 % 1014,8 hPa 0,0 l/m 0 min 0 min 39 W/m 12,9 km/h (3 Bft) 100,00 %
20.01.2023 09:30 0,6 C 0,6 C -1,1 C 96 % 1014,8 hPa 0,0 l/m 0 min 0 min 40 W/m 12,9 km/h (3 Bft) 100,00 %
20.01.2023 09:32 0,6 C 0,6 C -1,1 C 96 % 1014,8 hPa 0,0 l/m 0 min 0 min 43 W/m 22,5 km/h (4 Bft) 100,00 %
20.01.2023 09:34 0,6 C 0,6 C -1,1 C 96 % 1014,8 hPa 0,0 l/m 0 min 0 min 46 W/m 12,9 km/h (3 Bft) 97,87 %
20.01.2023 09:36 0,6 C 0,6 C -1,1 C 96 % 1014,9 hPa 0,0 l/m 0 min 0 min 53 W/m 19,3 km/h (3 Bft) 100,00 %
20.01.2023 09:38 0,6 C 0,6 C -1,1 C 96 % 1014,8 hPa 0,0 l/m 0 min 0 min 68 W/m 16,1 km/h (3 Bft) 100,00 %
20.01.2023 09:40 0,6 C 0,6 C -1,1 C 96 % 1014,8 hPa 0,0 l/m 2 min 0 min 85 W/m 16,1 km/h (3 Bft) 100,00 %
20.01.2023 09:42 0,7 C 0,6 C -1,1 C 96 % 1014,8 hPa 0,0 l/m 0 min 0 min 69 W/m 9,7 km/h (2 Bft) 100,00 %
20.01.2023 09:44 0,7 C 0,6 C -1,1 C 96 % 1014,9 hPa 0,0 l/m 0 min 0 min 49 W/m 9,7 km/h (2 Bft) 100,00 %
20.01.2023 09:46 0,7 C 0,6 C -1,1 C 96 % 1014,9 hPa 0,0 l/m 0 min 0 min 42 W/m 16,1 km/h (3 Bft) 100,00 %
20.01.2023 09:48 0,7 C 0,6 C -1,1 C 95 % 1014,9 hPa 0,0 l/m 0 min 0 min 47 W/m 12,9 km/h (3 Bft) 100,00 %
20.01.2023 09:50 0,8 C 0,6 C -1,1 C 95 % 1014,9 hPa 0,0 l/m 0 min 0 min 42 W/m 16,1 km/h (3 Bft) 97,87 %
20.01.2023 09:52 0,8 C 0,6 C -1,1 C 95 % 1014,9 hPa 0,0 l/m 0 min 0 min 34 W/m 16,1 km/h (3 Bft) 97,87 %
20.01.2023 09:54 0,8 C 0,6 C -1,1 C 95 % 1015,0 hPa 0,0 l/m 0 min 0 min 37 W/m 12,9 km/h (3 Bft) 97,87 %
20.01.2023 09:56 0,8 C 0,6 C -1,1 C 95 % 1014,9 hPa 0,0 l/m 0 min 0 min 45 W/m 12,9 km/h (3 Bft) 100,00 %
20.01.2023 09:58 0,8 C 0,6 C -1,1 C 95 % 1014,9 hPa 0,0 l/m 0 min 0 min 53 W/m 12,9 km/h (3 Bft) 97,87 %
20.01.2023 10:00 0,8 C 1,1 C -1,1 C 95 % 1015,0 hPa 0,0 l/m 0 min 0 min 66 W/m 16,1 km/h (3 Bft) 100,00 %
20.01.2023 10:02 0,9 C 1,1 C -1,1 C 95 % 1015,0 hPa 0,0 l/m 0 min 0 min 70 W/m 12,9 km/h (3 Bft) 100,00 %
20.01.2023 10:04 0,9 C 1,1 C -1,1 C 95 % 1015,0 hPa 0,0 l/m 0 min 0 min 63 W/m 6,4 km/h (2 Bft) 97,87 %
20.01.2023 10:06 0,9 C 1,1 C -1,1 C 95 % 1014,9 hPa 0,0 l/m 0 min 0 min 57 W/m 6,4 km/h (2 Bft) 97,87 %
20.01.2023 10:08 0,9 C 1,1 C -1,1 C 95 % 1014,9 hPa 0,0 l/m 0 min 0 min 57 W/m 3,2 km/h (1 Bft) 100,00 %
20.01.2023 10:10 1,0 C 1,1 C -0,6 C 95 % 1014,9 hPa 0,0 l/m 0 min 0 min 77 W/m 19,3 km/h (3 Bft) 100,00 %
20.01.2023 10:12 1,0 C 1,1 C -0,6 C 95 % 1015,0 hPa 0,0 l/m 0 min 0 min 72 W/m 19,3 km/h (3 Bft) 97,87 %
20.01.2023 10:14 1,1 C 1,1 C -0,6 C 95 % 1015,0 hPa 0,0 l/m 0 min 0 min 65 W/m 6,4 km/h (2 Bft) 95,74 %
20.01.2023 10:16 1,1 C 1,1 C -0,6 C 95 % 1015,1 hPa 0,0 l/m 0 min 0 min 61 W/m 12,9 km/h (3 Bft) 95,74 %
20.01.2023 10:18 1,1 C 1,1 C -0,6 C 95 % 1015,1 hPa 0,0 l/m 0 min 0 min 54 W/m 12,9 km/h (3 Bft) 97,87 %
20.01.2023 10:20 1,1 C 1,1 C -0,6 C 95 % 1015,0 hPa 0,0 l/m 0 min 0 min 54 W/m 3,2 km/h (1 Bft) 97,87 %
20.01.2023 10:22 1,1 C 1,1 C -0,6 C 95 % 1015,1 hPa 0,0 l/m 0 min 0 min 72 W/m 6,4 km/h (2 Bft) 95,74 %
20.01.2023 10:24 1,2 C 1,1 C -0,6 C 95 % 1015,0 hPa 0,0 l/m 0 min 0 min 78 W/m 6,4 km/h (2 Bft) 97,87 %
20.01.2023 10:26 1,2 C 1,1 C -0,6 C 95 % 1015,0 hPa 0,0 l/m 0 min 0 min 91 W/m 6,4 km/h (2 Bft) 95,65 %
20.01.2023 10:28 1,2 C 1,7 C -0,6 C 95 % 1014,9 hPa 0,0 l/m 0 min 0 min 104 W/m 6,4 km/h (2 Bft) 97,14 %
20.01.2023 10:30 1,2 C 1,7 C -0,6 C 95 % 1015,0 hPa 0,0 l/m 0 min 0 min 114 W/m 12,9 km/h (3 Bft) 94,92 %
20.01.2023 10:32 1,3 C 1,7 C -0,6 C 95 % 1015,0 hPa 0,0 l/m 0 min 0 min 109 W/m 19,3 km/h (3 Bft) 95,74 %
20.01.2023 10:34 1,3 C 1,7 C -0,6 C 95 % 1015,0 hPa 0,0 l/m 0 min 0 min 117 W/m 9,7 km/h (2 Bft) 94,29 %
20.01.2023 10:36 1,3 C 1,7 C -0,6 C 95 % 1015,1 hPa 0,0 l/m 0 min 0 min 92 W/m 6,4 km/h (2 Bft) 95,74 %
20.01.2023 10:38 1,3 C 1,7 C -0,6 C 95 % 1015,1 hPa 0,0 l/m 0 min 0 min 77 W/m 9,7 km/h (2 Bft) 94,83 %
20.01.2023 10:40 1,4 C 1,7 C -0,6 C 95 % 1015,1 hPa 0,0 l/m 0 min 0 min 69 W/m 9,7 km/h (2 Bft) 97,22 %
20.01.2023 10:42 1,4 C 1,7 C -0,6 C 95 % 1015,1 hPa 0,0 l/m 0 min 0 min 65 W/m 12,9 km/h (3 Bft) 93,48 %
20.01.2023 10:44 1,4 C 1,1 C -0,6 C 94 % 1015,1 hPa 0,0 l/m 0 min 0 min 67 W/m 12,9 km/h (3 Bft) 95,74 %
20.01.2023 10:46 1,4 C 1,1 C -0,6 C 94 % 1015,1 hPa 0,0 l/m 0 min 0 min 64 W/m 12,9 km/h (3 Bft) 95,74 %
20.01.2023 10:48 1,4 C 1,1 C -0,6 C 94 % 1015,1 hPa 0,0 l/m 0 min 0 min 65 W/m 16,1 km/h (3 Bft) 87,23 %
20.01.2023 10:50 1,4 C 1,1 C -0,6 C 94 % 1015,1 hPa 0,0 l/m 0 min 0 min 70 W/m 12,9 km/h (3 Bft) 51,22 %
20.01.2023 10:52 1,4 C 1,1 C -0,6 C 94 % 1015,1 hPa 0,0 l/m 0 min 0 min 66 W/m 12,9 km/h (3 Bft) 93,94 %
20.01.2023 10:54 1,4 C 1,7 C -0,6 C 94 % 1015,1 hPa 0,0 l/m 0 min 0 min 63 W/m 6,4 km/h (2 Bft) 95,74 %
20.01.2023 10:56 1,4 C 1,7 C -0,6 C 94 % 1015,1 hPa 0,0 l/m 0 min 0 min 72 W/m 6,4 km/h (2 Bft) 95,65 %
20.01.2023 10:58 1,4 C 1,7 C -0,6 C 94 % 1015,2 hPa 0,0 l/m 0 min 0 min 74 W/m 9,7 km/h (2 Bft) 95,74 %
20.01.2023 11:00 1,5 C 1,7 C -0,6 C 94 % 1015,2 hPa 0,0 l/m 0 min 0 min 70 W/m 12,9 km/h (3 Bft) 97,87 %
20.01.2023 11:02 1,5 C 1,7 C -0,6 C 94 % 1015,2 hPa 0,0 l/m 0 min 0 min 66 W/m 12,9 km/h (3 Bft) 95,74 %
20.01.2023 11:04 1,5 C 1,7 C -0,6 C 94 % 1015,3 hPa 0,0 l/m 0 min 0 min 63 W/m 9,7 km/h (2 Bft) 93,62 %
20.01.2023 11:06 1,5 C 1,7 C -0,6 C 94 % 1015,3 hPa 0,0 l/m 0 min 0 min 62 W/m 6,4 km/h (2 Bft) 96,55 %
20.01.2023 11:08 1,5 C 1,1 C -0,6 C 94 % 1015,3 hPa 0,0 l/m 0 min 0 min 55 W/m 12,9 km/h (3 Bft) 94,44 %
20.01.2023 11:10 1,5 C 1,1 C -0,6 C 94 % 1015,2 hPa 0,0 l/m 0 min 0 min 52 W/m 12,9 km/h (3 Bft) 95,65 %
20.01.2023 11:12 1,5 C 1,1 C -0,6 C 94 % 1015,2 hPa 0,0 l/m 0 min 0 min 65 W/m 16,1 km/h (3 Bft) 97,87 %
20.01.2023 11:14 1,5 C 1,7 C -0,6 C 94 % 1015,2 hPa 0,0 l/m 0 min 0 min 82 W/m 16,1 km/h (3 Bft) 97,87 %
20.01.2023 11:16 1,6 C 1,7 C -0,6 C 93 % 1015,2 hPa 0,0 l/m 0 min 0 min 81 W/m 6,4 km/h (2 Bft) 98,00 %
20.01.2023 11:18 1,6 C 1,7 C -0,6 C 94 % 1015,3 hPa 0,0 l/m 0 min 0 min 85 W/m 12,9 km/h (3 Bft) 97,87 %
20.01.2023 11:20 1,6 C 1,7 C -0,6 C 94 % 1015,3 hPa 0,0 l/m 0 min 0 min 85 W/m 16,1 km/h (3 Bft) 97,87 %
20.01.2023 11:22 1,6 C 1,7 C -0,6 C 93 % 1015,3 hPa 0,0 l/m 0 min 0 min 89 W/m 16,1 km/h (3 Bft) 97,87 %
20.01.2023 11:24 1,6 C 1,7 C -0,6 C 93 % 1015,2 hPa 0,0 l/m 0 min 0 min 89 W/m 12,9 km/h (3 Bft) 95,74 %
20.01.2023 11:26 1,6 C 1,7 C -0,6 C 93 % 1015,2 hPa 0,0 l/m 0 min 0 min 86 W/m 6,4 km/h (2 Bft) 95,74 %
20.01.2023 11:28 1,6 C 1,7 C -0,6 C 93 % 1015,3 hPa 0,0 l/m 0 min 0 min 76 W/m 12,9 km/h (3 Bft) 97,83 %
20.01.2023 11:30 1,6 C 1,7 C -0,6 C 93 % 1015,3 hPa 0,0 l/m 0 min 0 min 76 W/m 16,1 km/h (3 Bft) 97,87 %
20.01.2023 11:32 1,6 C 1,7 C -0,6 C 93 % 1015,3 hPa 0,0 l/m 0 min 0 min 70 W/m 19,3 km/h (3 Bft) 95,74 %
20.01.2023 11:34 1,7 C 1,7 C -0,6 C 93 % 1015,3 hPa 0,0 l/m 0 min 0 min 73 W/m 9,7 km/h (2 Bft) 93,62 %
20.01.2023 11:36 1,7 C 1,7 C -0,6 C 93 % 1015,3 hPa 0,0 l/m 0 min 0 min 69 W/m 9,7 km/h (2 Bft) 97,87 %
20.01.2023 11:38 1,7 C 1,7 C -0,6 C 93 % 1015,3 hPa 0,0 l/m 0 min 0 min 72 W/m 16,1 km/h (3 Bft) 97,87 %
20.01.2023 11:40 1,7 C 1,7 C -0,6 C 93 % 1015,2 hPa 0,0 l/m 0 min 0 min 72 W/m 9,7 km/h (2 Bft) 93,62 %
20.01.2023 11:42 1,7 C 1,7 C 0,0 C 93 % 1015,3 hPa 0,0 l/m 0 min 0 min 69 W/m 6,4 km/h (2 Bft) 54,35 %
20.01.2023 11:44 1,7 C 1,7 C -0,6 C 93 % 1015,3 hPa 0,0 l/m 0 min 0 min 64 W/m 9,7 km/h (2 Bft) 97,67 %
20.01.2023 11:46 1,7 C 1,7 C -0,6 C 93 % 1015,3 hPa 0,0 l/m 0 min 0 min 61 W/m 12,9 km/h (3 Bft) 97,87 %
20.01.2023 11:48 1,7 C 1,7 C -0,6 C 93 % 1015,3 hPa 0,0 l/m 0 min 0 min 64 W/m 22,5 km/h (4 Bft) 97,87 %
20.01.2023 11:50 1,7 C 1,7 C -0,6 C 93 % 1015,3 hPa 0,0 l/m 0 min 0 min 64 W/m 19,3 km/h (3 Bft) 97,87 %
20.01.2023 11:52 1,7 C 1,7 C -0,6 C 92 % 1015,2 hPa 0,0 l/m 0 min 0 min 60 W/m 6,4 km/h (2 Bft) 100,00 %
20.01.2023 11:54 1,7 C 1,7 C -0,6 C 92 % 1015,2 hPa 0,0 l/m 0 min 0 min 63 W/m 0,0 km/h (0 Bft) 100,00 %
20.01.2023 11:56 1,7 C 1,7 C -0,6 C 92 % 1015,2 hPa 0,0 l/m 0 min 0 min 63 W/m 0,0 km/h (0 Bft) 100,00 %
20.01.2023 11:58 1,7 C 1,7 C -0,6 C 92 % 1015,1 hPa 0,0 l/m 0 min 0 min 67 W/m 0,0 km/h (0 Bft) 97,87 %
20.01.2023 12:00 1,8 C 1,7 C -0,6 C 92 % 1015,2 hPa 0,0 l/m 0 min 0 min 68 W/m 6,4 km/h (2 Bft) 100,00 %
20.01.2023 12:02 1,8 C 1,7 C -0,6 C 92 % 1015,1 hPa 0,0 l/m 0 min 0 min 74 W/m 16,1 km/h (3 Bft) 100,00 %
20.01.2023 12:04 1,8 C 1,7 C -0,6 C 92 % 1015,1 hPa 0,0 l/m 0 min 0 min 70 W/m 12,9 km/h (3 Bft) 100,00 %
20.01.2023 12:07 1,8 C 1,7 C -0,6 C 92 % 1015,1 hPa 0,0 l/m 0 min 0 min 75 W/m 19,3 km/h (3 Bft) 98,59 %
20.01.2023 12:08 1,8 C 1,7 C -0,6 C 92 % 1015,1 hPa 0,0 l/m 0 min 0 min 82 W/m 12,9 km/h (3 Bft) 95,65 %
20.01.2023 12:10 1,8 C 1,7 C -0,6 C 92 % 1015,1 hPa 0,0 l/m 0 min 0 min 89 W/m 22,5 km/h (4 Bft) 100,00 %
20.01.2023 12:12 1,8 C 1,7 C -0,6 C 92 % 1015,1 hPa 0,0 l/m 0 min 0 min 93 W/m 12,9 km/h (3 Bft) 100,00 %
20.01.2023 12:14 1,8 C 1,7 C -0,6 C 92 % 1015,1 hPa 0,0 l/m 0 min 0 min 90 W/m 16,1 km/h (3 Bft) 100,00 %
20.01.2023 12:16 1,8 C 1,7 C -0,6 C 92 % 1015,2 hPa 0,0 l/m 0 min 0 min 77 W/m 9,7 km/h (2 Bft) 97,87 %
20.01.2023 12:18 1,8 C 1,7 C -0,6 C 92 % 1015,2 hPa 0,0 l/m 0 min 0 min 66 W/m 12,9 km/h (3 Bft) 97,87 %
20.01.2023 12:20 1,8 C 1,7 C -0,6 C 92 % 1015,2 hPa 0,0 l/m 0 min 0 min 63 W/m 12,9 km/h (3 Bft) 100,00 %
20.01.2023 12:22 1,8 C 1,1 C -0,6 C 92 % 1015,2 hPa 0,0 l/m 0 min 0 min 61 W/m 16,1 km/h (3 Bft) 100,00 %
20.01.2023 12:24 1,8 C 1,1 C -0,6 C 92 % 1015,2 hPa 0,0 l/m 0 min 0 min 56 W/m 12,9 km/h (3 Bft) 100,00 %
20.01.2023 12:26 1,8 C 1,1 C -0,6 C 92 % 1015,2 hPa 0,0 l/m 0 min 0 min 60 W/m 16,1 km/h (3 Bft) 100,00 %
20.01.2023 12:28 1,8 C 1,1 C -0,6 C 92 % 1015,2 hPa 0,0 l/m 0 min 0 min 57 W/m 12,9 km/h (3 Bft) 98,15 %
20.01.2023 12:30 1,8 C 1,1 C -0,6 C 92 % 1015,1 hPa 0,0 l/m 0 min 0 min 55 W/m 12,9 km/h (3 Bft) 100,00 %
20.01.2023 12:32 1,8 C 1,1 C -0,6 C 92 % 1015,1 hPa 0,0 l/m 0 min 0 min 57 W/m 12,9 km/h (3 Bft) 100,00 %
20.01.2023 12:34 1,7 C 1,1 C -0,6 C 92 % 1015,2 hPa 0,0 l/m 0 min 0 min 57 W/m 6,4 km/h (2 Bft) 97,87 %
20.01.2023 12:36 1,7 C 1,1 C -0,6 C 92 % 1015,1 hPa 0,0 l/m 0 min 0 min 58 W/m 6,4 km/h (2 Bft) 44,74 %
20.01.2023 12:38 1,7 C 1,1 C -0,6 C 92 % 1015,2 hPa 0,0 l/m 0 min 0 min 59 W/m 9,7 km/h (2 Bft) 97,83 %
20.01.2023 12:40 1,7 C 1,1 C -0,6 C 93 % 1015,1 hPa 0,0 l/m 0 min 0 min 56 W/m 12,9 km/h (3 Bft) 95,74 %
20.01.2023 12:42 1,7 C 1,1 C -0,6 C 93 % 1015,2 hPa 0,0 l/m 0 min 0 min 57 W/m 12,9 km/h (3 Bft) 97,87 %
20.01.2023 12:44 1,7 C 1,1 C -0,6 C 93 % 1015,1 hPa 0,0 l/m 0 min 0 min 61 W/m 12,9 km/h (3 Bft) 95,74 %
20.01.2023 12:46 1,7 C 1,1 C -0,6 C 93 % 1015,1 hPa 0,0 l/m 0 min 0 min 64 W/m 12,9 km/h (3 Bft) 95,74 %
20.01.2023 12:48 1,7 C 1,1 C -0,6 C 93 % 1015,1 hPa 0,0 l/m 0 min 0 min 68 W/m 12,9 km/h (3 Bft) 97,87 %
20.01.2023 12:50 1,7 C 1,1 C -0,6 C 93 % 1015,1 hPa 0,0 l/m 0 min 0 min 70 W/m 12,9 km/h (3 Bft) 97,87 %
20.01.2023 12:52 1,7 C 1,1 C -0,6 C 93 % 1015,0 hPa 0,0 l/m 0 min 0 min 71 W/m 16,1 km/h (3 Bft) 95,65 %
20.01.2023 12:54 1,7 C 1,1 C -0,6 C 93 % 1015,0 hPa 0,0 l/m 0 min 0 min 70 W/m 12,9 km/h (3 Bft) 91,49 %
20.01.2023 12:56 1,7 C 1,1 C -0,6 C 93 % 1015,1 hPa 0,0 l/m 0 min 0 min 71 W/m 12,9 km/h (3 Bft) 95,74 %
20.01.2023 12:58 1,7 C 1,1 C -0,6 C 93 % 1015,0 hPa 0,0 l/m 0 min 0 min 62 W/m 19,3 km/h (3 Bft) 95,74 %
20.01.2023 13:00 1,7 C 1,1 C -0,6 C 93 % 1015,1 hPa 0,0 l/m 0 min 0 min 53 W/m 16,1 km/h (3 Bft) 95,74 %
20.01.2023 13:02 1,7 C 1,1 C -1,1 C 93 % 1015,1 hPa 0,0 l/m 0 min 2 min 51 W/m 16,1 km/h (3 Bft) 95,74 %
20.01.2023 13:04 1,6 C 1,1 C -1,1 C 93 % 1014,9 hPa 0,0 l/m 0 min 0 min 47 W/m 12,9 km/h (3 Bft) 95,74 %
20.01.2023 13:06 1,6 C 1,1 C -1,1 C 93 % 1015,0 hPa 0,0 l/m 0 min 0 min 44 W/m 12,9 km/h (3 Bft) 96,55 %
20.01.2023 13:08 1,6 C 1,1 C -1,1 C 93 % 1014,9 hPa 0,0 l/m 0 min 0 min 36 W/m 12,9 km/h (3 Bft) 97,14 %
20.01.2023 13:10 1,6 C 1,1 C -1,1 C 93 % 1015,0 hPa 0,0 l/m 0 min 2 min 32 W/m 16,1 km/h (3 Bft) 97,87 %
20.01.2023 13:12 1,6 C 0,6 C -1,1 C 93 % 1015,0 hPa 0,0 l/m 0 min 0 min 32 W/m 12,9 km/h (3 Bft) 97,87 %
20.01.2023 13:14 1,5 C 0,6 C -1,1 C 93 % 1015,0 hPa 0,2 l/m 0 min 0 min 32 W/m 16,1 km/h (3 Bft) 97,87 %
20.01.2023 13:16 1,5 C 0,6 C -1,1 C 93 % 1015,0 hPa 0,0 l/m 0 min 2 min 32 W/m 9,7 km/h (2 Bft) 95,74 %
20.01.2023 13:18 1,5 C 0,6 C -1,1 C 93 % 1015,0 hPa 0,0 l/m 0 min 0 min 30 W/m 6,4 km/h (2 Bft) 97,87 %
20.01.2023 13:20 1,5 C 0,6 C -1,1 C 93 % 1015,0 hPa 0,0 l/m 0 min 0 min 31 W/m 12,9 km/h (3 Bft) 95,74 %
20.01.2023 13:22 1,5 C 0,6 C -1,1 C 93 % 1015,0 hPa 0,0 l/m 0 min 0 min 32 W/m 12,9 km/h (3 Bft) 100,00 %
20.01.2023 13:24 1,4 C 0,6 C -1,1 C 93 % 1015,0 hPa 0,0 l/m 0 min 0 min 32 W/m 12,9 km/h (3 Bft) 100,00 %
20.01.2023 13:26 1,4 C 0,6 C -1,1 C 94 % 1015,0 hPa 0,0 l/m 0 min 0 min 31 W/m 9,7 km/h (2 Bft) 93,62 %
20.01.2023 13:28 1,4 C 0,6 C -1,1 C 94 % 1015,0 hPa 0,0 l/m 0 min 2 min 29 W/m 12,9 km/h (3 Bft) 95,74 %
20.01.2023 13:30 1,4 C 0,6 C -1,1 C 94 % 1015,1 hPa 0,0 l/m 0 min 0 min 28 W/m 9,7 km/h (2 Bft) 95,74 %
20.01.2023 13:32 1,4 C 0,6 C -1,1 C 94 % 1015,1 hPa 0,0 l/m 0 min 0 min 26 W/m 6,4 km/h (2 Bft) 97,87 %
20.01.2023 13:34 1,4 C 0,6 C -1,1 C 94 % 1015,1 hPa 0,0 l/m 0 min 0 min 25 W/m 6,4 km/h (2 Bft) 97,87 %
20.01.2023 13:36 1,4 C 0,6 C -1,1 C 94 % 1015,1 hPa 0,0 l/m 0 min 0 min 25 W/m 6,4 km/h (2 Bft) 97,83 %
20.01.2023 13:38 1,4 C 0,6 C -1,1 C 94 % 1015,0 hPa 0,0 l/m 0 min 0 min 25 W/m 12,9 km/h (3 Bft) 97,87 %
20.01.2023 13:40 1,4 C 0,6 C -1,1 C 94 % 1015,1 hPa 0,0 l/m 0 min 0 min 28 W/m 12,9 km/h (3 Bft) 97,87 %
20.01.2023 13:42 1,4 C 0,6 C -1,1 C 94 % 1015,0 hPa 0,0 l/m 0 min 0 min 32 W/m 16,1 km/h (3 Bft) 100,00 %
20.01.2023 13:44 1,4 C 0,6 C -1,1 C 94 % 1015,1 hPa 0,0 l/m 0 min 0 min 34 W/m 9,7 km/h (2 Bft) 100,00 %
20.01.2023 13:46 1,4 C 0,6 C -1,1 C 94 % 1015,1 hPa 0,0 l/m 0 min 0 min 35 W/m 3,2 km/h (1 Bft) 100,00 %
20.01.2023 13:48 1,4 C 1,1 C -1,1 C 94 % 1015,0 hPa 0,0 l/m 0 min 2 min 35 W/m 16,1 km/h (3 Bft) 97,87 %
20.01.2023 13:50 1,4 C 1,1 C -1,1 C 94 % 1015,1 hPa 0,0 l/m 0 min 2 min 38 W/m 16,1 km/h (3 Bft) 95,65 %
20.01.2023 13:52 1,4 C 0,6 C -1,1 C 94 % 1015,0 hPa 0,0 l/m 0 min 0 min 40 W/m 16,1 km/h (3 Bft) 97,87 %
20.01.2023 13:54 1,4 C 1,1 C -1,1 C 94 % 1015,0 hPa 0,0 l/m 0 min 2 min 42 W/m 12,9 km/h (3 Bft) 97,87 %
20.01.2023 13:56 1,4 C 1,1 C -1,1 C 94 % 1015,0 hPa 0,0 l/m 0 min 2 min 40 W/m 12,9 km/h (3 Bft) 97,87 %
20.01.2023 13:58 1,4 C 1,1 C -1,1 C 94 % 1015,0 hPa 0,0 l/m 0 min 0 min 36 W/m 16,1 km/h (3 Bft) 95,74 %
20.01.2023 14:00 1,4 C 1,1 C -1,1 C 94 % 1015,0 hPa 0,0 l/m 0 min 0 min 31 W/m 12,9 km/h (3 Bft) 95,74 %
20.01.2023 14:02 1,4 C 1,1 C -1,1 C 94 % 1015,1 hPa 0,0 l/m 0 min 2 min 28 W/m 12,9 km/h (3 Bft) 100,00 %
20.01.2023 14:04 1,4 C 1,1 C -1,1 C 94 % 1015,1 hPa 0,0 l/m 0 min 0 min 26 W/m 16,1 km/h (3 Bft) 97,83 %
20.01.2023 14:06 1,4 C 1,1 C -1,1 C 95 % 1015,1 hPa 0,0 l/m 0 min 0 min 25 W/m 16,1 km/h (3 Bft) 98,31 %
20.01.2023 14:08 1,4 C 0,6 C -1,1 C 95 % 1015,1 hPa 0,0 l/m 0 min 2 min 26 W/m 12,9 km/h (3 Bft) 97,14 %
20.01.2023 14:10 1,4 C 0,6 C -1,1 C 95 % 1015,1 hPa 0,0 l/m 0 min 0 min 26 W/m 12,9 km/h (3 Bft) 97,87 %
20.01.2023 14:12 1,4 C 0,6 C -1,1 C 95 % 1015,1 hPa 0,0 l/m 0 min 0 min 27 W/m 19,3 km/h (3 Bft) 97,87 %
20.01.2023 14:14 1,4 C 0,6 C -1,1 C 95 % 1015,1 hPa 0,0 l/m 0 min 0 min 26 W/m 16,1 km/h (3 Bft) 97,87 %
20.01.2023 14:16 1,3 C 0,6 C -1,1 C 95 % 1015,1 hPa 0,0 l/m 0 min 0 min 26 W/m 3,2 km/h (1 Bft) 12,50 %
20.01.2023 14:18 1,3 C 0,6 C -1,1 C 95 % 1015,1 hPa 0,0 l/m 0 min 0 min 26 W/m 12,9 km/h (3 Bft) 97,67 %
20.01.2023 14:20 1,3 C 0,6 C -1,1 C 95 % 1015,1 hPa 0,0 l/m 0 min 0 min 25 W/m 12,9 km/h (3 Bft) 95,74 %
20.01.2023 14:22 1,3 C 0,6 C -1,1 C 95 % 1015,1 hPa 0,0 l/m 0 min 0 min 25 W/m 16,1 km/h (3 Bft) 95,74 %
20.01.2023 14:24 1,3 C 0,6 C -1,1 C 95 % 1015,2 hPa 0,0 l/m 0 min 0 min 24 W/m 12,9 km/h (3 Bft) 93,62 %
20.01.2023 14:26 1,3 C 0,6 C -1,1 C 95 % 1015,2 hPa 0,0 l/m 0 min 0 min 23 W/m 12,9 km/h (3 Bft) 97,87 %
20.01.2023 14:28 1,3 C 0,6 C -1,1 C 95 % 1015,2 hPa 0,0 l/m 0 min 0 min 21 W/m 12,9 km/h (3 Bft) 95,74 %
20.01.2023 14:30 1,3 C 0,6 C -1,1 C 95 % 1015,3 hPa 0,0 l/m 0 min 0 min 20 W/m 19,3 km/h (3 Bft) 95,65 %
20.01.2023 14:32 1,3 C 0,6 C -1,1 C 95 % 1015,2 hPa 0,0 l/m 0 min 0 min 18 W/m 16,1 km/h (3 Bft) 93,62 %
20.01.2023 14:34 1,3 C 0,6 C -1,1 C 95 % 1015,2 hPa 0,0 l/m 0 min 0 min 17 W/m 12,9 km/h (3 Bft) 93,62 %
20.01.2023 14:36 1,3 C 0,6 C -1,1 C 95 % 1015,2 hPa 0,0 l/m 0 min 0 min 15 W/m 16,1 km/h (3 Bft) 95,74 %
20.01.2023 14:38 1,2 C 0,6 C -1,1 C 95 % 1015,3 hPa 0,0 l/m 0 min 0 min 14 W/m 16,1 km/h (3 Bft) 91,49 %
20.01.2023 14:40 1,2 C 0,6 C -1,1 C 95 % 1015,3 hPa 0,0 l/m 0 min 0 min 14 W/m 16,1 km/h (3 Bft) 95,74 %
20.01.2023 14:42 1,2 C 0,6 C -1,1 C 95 % 1015,3 hPa 0,0 l/m 0 min 0 min 14 W/m 12,9 km/h (3 Bft) 95,74 %
20.01.2023 14:44 1,2 C 0,6 C -1,1 C 95 % 1015,3 hPa 0,0 l/m 0 min 0 min 15 W/m 6,4 km/h (2 Bft) 95,65 %
20.01.2023 14:46 1,2 C 0,6 C -1,1 C 95 % 1015,4 hPa 0,0 l/m 0 min 0 min 16 W/m 16,1 km/h (3 Bft) 97,87 %
20.01.2023 14:48 1,2 C 0,6 C -1,1 C 95 % 1015,4 hPa 0,0 l/m 0 min 0 min 16 W/m 12,9 km/h (3 Bft) 97,87 %
20.01.2023 14:50 1,2 C 0,6 C -1,1 C 95 % 1015,4 hPa 0,0 l/m 0 min 0 min 18 W/m 12,9 km/h (3 Bft) 95,74 %
20.01.2023 14:52 1,2 C 0,6 C -1,1 C 95 % 1015,4 hPa 0,0 l/m 0 min 0 min 17 W/m 6,4 km/h (2 Bft) 95,74 %
20.01.2023 14:54 1,2 C 0,6 C -1,1 C 95 % 1015,4 hPa 0,0 l/m 0 min 0 min 18 W/m 12,9 km/h (3 Bft) 95,74 %
20.01.2023 14:56 1,2 C 0,6 C -1,1 C 95 % 1015,5 hPa 0,0 l/m 0 min 0 min 18 W/m 12,9 km/h (3 Bft) 95,74 %
20.01.2023 14:58 1,2 C 0,6 C -1,1 C 95 % 1015,5 hPa 0,0 l/m 0 min 0 min 19 W/m 12,9 km/h (3 Bft) 93,48 %
20.01.2023 15:00 1,2 C 0,6 C -1,1 C 95 % 1015,4 hPa 0,0 l/m 0 min 0 min 21 W/m 16,1 km/h (3 Bft) 97,87 %
20.01.2023 15:02 1,2 C 0,6 C -1,1 C 95 % 1015,4 hPa 0,0 l/m 0 min 0 min 22 W/m 16,1 km/h (3 Bft) 97,87 %
20.01.2023 15:04 1,2 C 0,6 C -1,1 C 95 % 1015,5 hPa 0,0 l/m 0 min 0 min 23 W/m 16,1 km/h (3 Bft) 95,74 %
20.01.2023 15:06 1,2 C 0,6 C -1,1 C 95 % 1015,4 hPa 0,0 l/m 0 min 0 min 24 W/m 16,1 km/h (3 Bft) 100,00 %
20.01.2023 15:08 1,2 C 0,6 C -1,1 C 95 % 1015,4 hPa 0,0 l/m 0 min 0 min 29 W/m 19,3 km/h (3 Bft) 100,00 %
20.01.2023 15:10 1,2 C 0,6 C -1,1 C 95 % 1015,4 hPa 0,0 l/m 0 min 0 min 32 W/m 19,3 km/h (3 Bft) 95,74 %
20.01.2023 15:12 1,2 C 1,1 C -1,1 C 95 % 1015,5 hPa 0,0 l/m 0 min 0 min 36 W/m 12,9 km/h (3 Bft) 97,83 %
20.01.2023 15:14 1,2 C 1,1 C -1,1 C 95 % 1015,5 hPa 0,0 l/m 0 min 0 min 38 W/m 12,9 km/h (3 Bft) 100,00 %
20.01.2023 15:16 1,2 C 1,1 C -1,1 C 95 % 1015,5 hPa 0,0 l/m 0 min 0 min 33 W/m 12,9 km/h (3 Bft) 100,00 %
20.01.2023 15:18 1,2 C 1,1 C -1,1 C 95 % 1015,6 hPa 0,0 l/m 0 min 0 min 30 W/m 12,9 km/h (3 Bft) 100,00 %
20.01.2023 15:20 1,2 C 1,1 C -1,1 C 95 % 1015,6 hPa 0,0 l/m 0 min 0 min 30 W/m 16,1 km/h (3 Bft) 97,87 %
20.01.2023 15:22 1,2 C 1,1 C -1,1 C 95 % 1015,5 hPa 0,0 l/m 0 min 0 min 26 W/m 12,9 km/h (3 Bft) 95,74 %
20.01.2023 15:24 1,2 C 1,1 C -1,1 C 95 % 1015,6 hPa 0,0 l/m 0 min 0 min 25 W/m 16,1 km/h (3 Bft) 97,87 %
20.01.2023 15:26 1,2 C 1,1 C -1,1 C 95 % 1015,5 hPa 0,0 l/m 0 min 0 min 23 W/m 19,3 km/h (3 Bft) 95,65 %
20.01.2023 15:28 1,3 C 1,1 C -1,1 C 95 % 1015,5 hPa 0,0 l/m 0 min 0 min 22 W/m 12,9 km/h (3 Bft) 97,87 %
20.01.2023 15:30 1,3 C 1,1 C -1,1 C 95 % 1015,6 hPa 0,0 l/m 0 min 0 min 21 W/m 22,5 km/h (4 Bft) 97,87 %
20.01.2023 15:32 1,3 C 1,1 C -1,1 C 95 % 1015,6 hPa 0,0 l/m 0 min 0 min 20 W/m 12,9 km/h (3 Bft) 97,87 %
20.01.2023 15:34 1,3 C 1,1 C -1,1 C 95 % 1015,6 hPa 0,0 l/m 0 min 0 min 19 W/m 16,1 km/h (3 Bft) 95,74 %
20.01.2023 15:36 1,3 C 1,1 C -1,1 C 95 % 1015,6 hPa 0,0 l/m 0 min 0 min 19 W/m 16,1 km/h (3 Bft) 97,87 %
20.01.2023 15:38 1,3 C 1,1 C -1,1 C 95 % 1015,7 hPa 0,0 l/m 0 min 0 min 18 W/m 6,4 km/h (2 Bft) 95,74 %
20.01.2023 15:40 1,3 C 1,1 C -1,1 C 95 % 1015,7 hPa 0,0 l/m 0 min 0 min 17 W/m 16,1 km/h (3 Bft) 97,83 %
20.01.2023 15:42 1,3 C 1,1 C -1,1 C 95 % 1015,7 hPa 0,0 l/m 0 min 0 min 16 W/m 12,9 km/h (3 Bft) 97,87 %
20.01.2023 15:44 1,3 C 1,1 C -1,1 C 95 % 1015,7 hPa 0,0 l/m 0 min 0 min 16 W/m 19,3 km/h (3 Bft) 97,87 %
20.01.2023 15:46 1,3 C 0,6 C -1,1 C 95 % 1015,8 hPa 0,0 l/m 0 min 0 min 15 W/m 16,1 km/h (3 Bft) 97,87 %
20.01.2023 15:48 1,3 C 1,1 C -1,1 C 96 % 1015,9 hPa 0,0 l/m 0 min 0 min 14 W/m 12,9 km/h (3 Bft) 95,74 %
20.01.2023 15:50 1,2 C 1,1 C -1,1 C 96 % 1015,9 hPa 0,0 l/m 0 min 0 min 14 W/m 6,4 km/h (2 Bft) 97,87 %
20.01.2023 15:52 1,3 C 0,6 C -1,1 C 96 % 1016,0 hPa 0,0 l/m 0 min 0 min 13 W/m 16,1 km/h (3 Bft) 97,87 %
20.01.2023 15:54 1,2 C 0,6 C -1,1 C 96 % 1016,1 hPa 0,0 l/m 0 min 0 min 12 W/m 12,9 km/h (3 Bft) 97,83 %
20.01.2023 15:56 1,3 C 0,6 C -1,1 C 96 % 1016,1 hPa 0,0 l/m 0 min 0 min 14 W/m 12,9 km/h (3 Bft) 97,87 %
20.01.2023 15:58 1,2 C 0,6 C -1,1 C 96 % 1016,1 hPa 0,0 l/m 0 min 0 min 14 W/m 16,1 km/h (3 Bft) 97,87 %
20.01.2023 16:00 1,2 C 0,6 C -1,1 C 96 % 1016,2 hPa 0,0 l/m 0 min 0 min 13 W/m 16,1 km/h (3 Bft) 100,00 %
20.01.2023 16:02 1,2 C 0,6 C -1,1 C 96 % 1016,2 hPa 0,0 l/m 0 min 0 min 14 W/m 9,7 km/h (2 Bft) 100,00 %
20.01.2023 16:04 1,2 C 0,6 C -1,1 C 96 % 1016,2 hPa 0,0 l/m 0 min 0 min 14 W/m 12,9 km/h (3 Bft) 100,00 %
20.01.2023 16:06 1,2 C 0,6 C -1,1 C 96 % 1016,2 hPa 0,0 l/m 0 min 0 min 14 W/m 12,9 km/h (3 Bft) 100,00 %
20.01.2023 16:08 1,2 C 0,6 C -1,1 C 96 % 1016,2 hPa 0,0 l/m 0 min 0 min 15 W/m 9,7 km/h (2 Bft) 97,83 %
20.01.2023 16:10 1,3 C 1,1 C -1,1 C 96 % 1016,2 hPa 0,0 l/m 0 min 0 min 17 W/m 12,9 km/h (3 Bft) 100,00 %
20.01.2023 16:12 1,2 C 1,1 C -1,1 C 96 % 1016,3 hPa 0,0 l/m 0 min 0 min 18 W/m 12,9 km/h (3 Bft) 100,00 %
20.01.2023 16:14 1,3 C 1,1 C -1,1 C 96 % 1016,3 hPa 0,0 l/m 0 min 0 min 18 W/m 9,7 km/h (2 Bft) 100,00 %
20.01.2023 16:16 1,3 C 1,1 C -1,1 C 96 % 1016,3 hPa 0,0 l/m 0 min 0 min 16 W/m 12,9 km/h (3 Bft) 97,87 %
20.01.2023 16:18 1,3 C 1,1 C -1,1 C 96 % 1016,4 hPa 0,0 l/m 0 min 0 min 16 W/m 16,1 km/h (3 Bft) 97,87 %
20.01.2023 16:20 1,3 C 1,1 C -1,1 C 96 % 1016,3 hPa 0,0 l/m 0 min 0 min 15 W/m 16,1 km/h (3 Bft) 95,74 %
20.01.2023 16:22 1,3 C 1,1 C -1,1 C 96 % 1016,4 hPa 0,0 l/m 0 min 0 min 16 W/m 22,5 km/h (4 Bft) 97,83 %
20.01.2023 16:24 1,3 C 1,1 C -1,1 C 96 % 1016,3 hPa 0,0 l/m 0 min 0 min 16 W/m 19,3 km/h (3 Bft) 97,87 %
20.01.2023 16:26 1,3 C 1,1 C -1,1 C 96 % 1016,4 hPa 0,0 l/m 0 min 0 min 16 W/m 12,9 km/h (3 Bft) 97,87 %
20.01.2023 16:28 1,3 C 1,1 C -1,1 C 96 % 1016,4 hPa 0,0 l/m 0 min 0 min 16 W/m 12,9 km/h (3 Bft) 95,74 %
20.01.2023 16:30 1,3 C 1,1 C -1,1 C 96 % 1016,5 hPa 0,0 l/m 0 min 0 min 15 W/m 19,3 km/h (3 Bft) 97,87 %
20.01.2023 16:32 1,3 C 1,1 C -1,1 C 96 % 1016,6 hPa 0,0 l/m 0 min 0 min 12 W/m 12,9 km/h (3 Bft) 97,87 %
20.01.2023 16:34 1,3 C 1,1 C -1,1 C 96 % 1016,6 hPa 0,0 l/m 0 min 0 min 8 W/m 12,9 km/h (3 Bft) 97,87 %
20.01.2023 16:36 1,3 C 1,1 C -1,1 C 96 % 1016,6 hPa 0,0 l/m 0 min 0 min 5 W/m 12,9 km/h (3 Bft) 97,83 %
20.01.2023 16:38 1,3 C 1,1 C -1,1 C 96 % 1016,7 hPa 0,0 l/m 0 min 0 min 5 W/m 6,4 km/h (2 Bft) 95,74 %
20.01.2023 16:40 1,3 C 1,1 C -1,1 C 96 % 1016,7 hPa 0,0 l/m 0 min 0 min 5 W/m 6,4 km/h (2 Bft) 63,83 %
20.01.2023 16:42 1,3 C 1,1 C -1,1 C 96 % 1016,7 hPa 0,0 l/m 0 min 0 min 5 W/m 12,9 km/h (3 Bft) 86,36 %
20.01.2023 16:44 1,3 C 1,1 C -1,1 C 96 % 1016,7 hPa 0,0 l/m 0 min 0 min 5 W/m 12,9 km/h (3 Bft) 97,87 %
20.01.2023 16:46 1,3 C 1,1 C -1,1 C 96 % 1016,8 hPa 0,0 l/m 0 min 0 min 1 W/m 19,3 km/h (3 Bft) 97,87 %
20.01.2023 16:48 1,3 C 1,1 C -1,1 C 96 % 1016,8 hPa 0,0 l/m 0 min 0 min 0 W/m 12,9 km/h (3 Bft) 97,83 %
20.01.2023 16:50 1,4 C 1,1 C -1,1 C 96 % 1016,9 hPa 0,0 l/m 0 min 0 min 0 W/m 9,7 km/h (2 Bft) 100,00 %
20.01.2023 16:52 1,4 C 1,1 C -1,1 C 96 % 1016,9 hPa 0,0 l/m 0 min 0 min 0 W/m 16,1 km/h (3 Bft) 100,00 %
20.01.2023 16:54 1,4 C 1,1 C -1,1 C 96 % 1016,9 hPa 0,0 l/m 0 min 0 min 0 W/m 19,3 km/h (3 Bft) 100,00 %
20.01.2023 16:56 1,4 C 1,1 C -1,1 C 96 % 1016,9 hPa 0,0 l/m 0 min 0 min 0 W/m 9,7 km/h (2 Bft) 100,00 %
20.01.2023 16:58 1,4 C 1,1 C -1,1 C 96 % 1017,0 hPa 0,0 l/m 0 min 0 min 0 W/m 16,1 km/h (3 Bft) 100,00 %
20.01.2023 17:00 1,4 C 1,1 C -0,6 C 96 % 1017,0 hPa 0,0 l/m 0 min 0 min 0 W/m 12,9 km/h (3 Bft) 97,87 %
20.01.2023 17:02 1,4 C 1,1 C -0,6 C 95 % 1017,0 hPa 0,0 l/m 0 min 0 min 0 W/m 16,1 km/h (3 Bft) 97,87 %
20.01.2023 17:04 1,4 C 1,1 C -0,6 C 95 % 1017,1 hPa 0,0 l/m 0 min 0 min 0 W/m 19,3 km/h (3 Bft) 97,83 %
20.01.2023 17:06 1,4 C 1,1 C -0,6 C 95 % 1017,1 hPa 0,0 l/m 0 min 0 min 0 W/m 19,3 km/h (3 Bft) 95,83 %
20.01.2023 17:08 1,4 C 1,1 C -0,6 C 95 % 1017,1 hPa 0,0 l/m 0 min 0 min 0 W/m 12,9 km/h (3 Bft) 95,74 %
20.01.2023 17:10 1,4 C 1,1 C -0,6 C 95 % 1017,1 hPa 0,0 l/m 0 min 0 min 0 W/m 16,1 km/h (3 Bft) 97,87 %
20.01.2023 17:12 1,5 C 1,1 C -0,6 C 95 % 1017,2 hPa 0,0 l/m 0 min 0 min 0 W/m 16,1 km/h (3 Bft) 97,87 %
20.01.2023 17:14 1,5 C 1,1 C -0,6 C 95 % 1017,2 hPa 0,0 l/m 0 min 0 min 0 W/m 12,9 km/h (3 Bft) 95,74 %
20.01.2023 17:16 1,5 C 1,1 C -0,6 C 95 % 1017,3 hPa 0,0 l/m 0 min 0 min 0 W/m 12,9 km/h (3 Bft) 95,74 %
20.01.2023 17:18 1,4 C 1,1 C -0,6 C 95 % 1017,3 hPa 0,0 l/m 0 min 0 min 0 W/m 16,1 km/h (3 Bft) 95,65 %
20.01.2023 17:20 1,4 C 1,1 C -0,6 C 95 % 1017,4 hPa 0,0 l/m 0 min 0 min 0 W/m 19,3 km/h (3 Bft) 97,87 %
20.01.2023 17:22 1,4 C 1,1 C -0,6 C 96 % 1017,4 hPa 0,0 l/m 0 min 0 min 0 W/m 12,9 km/h (3 Bft) 97,87 %
20.01.2023 17:24 1,4 C 1,1 C -0,6 C 95 % 1017,4 hPa 0,0 l/m 0 min 0 min 0 W/m 16,1 km/h (3 Bft) 97,87 %
20.01.2023 17:26 1,4 C 1,1 C -0,6 C 95 % 1017,4 hPa 0,0 l/m 0 min 0 min 0 W/m 12,9 km/h (3 Bft) 95,74 %
20.01.2023 17:28 1,4 C 1,1 C -0,6 C 95 % 1017,4 hPa 0,0 l/m 0 min 0 min 0 W/m 12,9 km/h (3 Bft) 95,74 %
20.01.2023 17:30 1,4 C 1,1 C -0,6 C 95 % 1017,5 hPa 0,0 l/m 0 min 0 min 0 W/m 12,9 km/h (3 Bft) 97,87 %
20.01.2023 17:32 1,4 C 1,1 C -0,6 C 95 % 1017,5 hPa 0,0 l/m 0 min 0 min 0 W/m 6,4 km/h (2 Bft) 97,83 %
20.01.2023 17:34 1,4 C 1,1 C -0,6 C 95 % 1017,5 hPa 0,0 l/m 0 min 0 min 0 W/m 9,7 km/h (2 Bft) 97,87 %
20.01.2023 17:36 1,4 C 1,1 C -0,6 C 95 % 1017,6 hPa 0,0 l/m 0 min 0 min 0 W/m 6,4 km/h (2 Bft) 100,00 %
20.01.2023 17:38 1,5 C 1,1 C -0,6 C 95 % 1017,6 hPa 0,0 l/m 0 min 0 min 0 W/m 6,4 km/h (2 Bft) 97,87 %
20.01.2023 17:40 1,4 C 1,1 C -0,6 C 95 % 1017,7 hPa 0,0 l/m 0 min 0 min 0 W/m 19,3 km/h (3 Bft) 97,87 %
20.01.2023 17:42 1,4 C 1,1 C -0,6 C 95 % 1017,7 hPa 0,0 l/m 0 min 0 min 0 W/m 12,9 km/h (3 Bft) 93,62 %
20.01.2023 17:44 1,4 C 1,1 C -0,6 C 95 % 1017,7 hPa 0,0 l/m 0 min 0 min 0 W/m 12,9 km/h (3 Bft) 95,74 %
20.01.2023 17:46 1,4 C 1,1 C -0,6 C 95 % 1017,8 hPa 0,0 l/m 0 min 0 min 0 W/m 16,1 km/h (3 Bft) 95,65 %
20.01.2023 17:48 1,4 C 1,1 C -0,6 C 95 % 1017,8 hPa 0,0 l/m 0 min 0 min 0 W/m 12,9 km/h (3 Bft) 95,74 %
20.01.2023 17:50 1,4 C 1,1 C -0,6 C 95 % 1017,7 hPa 0,0 l/m 0 min 0 min 0 W/m 16,1 km/h (3 Bft) 95,74 %
20.01.2023 17:52 1,4 C 1,1 C -0,6 C 95 % 1017,8 hPa 0,0 l/m 0 min 0 min 0 W/m 12,9 km/h (3 Bft) 93,62 %
20.01.2023 17:54 1,4 C 1,1 C -1,1 C 95 % 1017,8 hPa 0,0 l/m 0 min 0 min 0 W/m 6,4 km/h (2 Bft) 97,87 %
20.01.2023 17:56 1,4 C 1,1 C -0,6 C 95 % 1017,9 hPa 0,0 l/m 0 min 0 min 0 W/m 12,9 km/h (3 Bft) 95,74 %
20.01.2023 17:58 1,4 C 1,1 C -0,6 C 95 % 1017,9 hPa 0,0 l/m 0 min 0 min 0 W/m 12,9 km/h (3 Bft) 93,62 %
20.01.2023 18:00 1,4 C 1,1 C -0,6 C 95 % 1017,9 hPa 0,0 l/m 0 min 0 min 0 W/m 16,1 km/h (3 Bft) 95,65 %
20.01.2023 18:02 1,4 C 1,1 C -0,6 C 94 % 1017,9 hPa 0,0 l/m 0 min 0 min 0 W/m 9,7 km/h (2 Bft) 95,74 %
20.01.2023 18:04 1,4 C 1,1 C -0,6 C 94 % 1018,0 hPa 0,0 l/m 0 min 0 min 0 W/m 9,7 km/h (2 Bft) 97,87 %
20.01.2023 18:07 1,4 C 1,1 C -0,6 C 94 % 1018,1 hPa 0,0 l/m 0 min 0 min 0 W/m 9,7 km/h (2 Bft) 94,37 %
20.01.2023 18:08 1,4 C 1,1 C -0,6 C 94 % 1018,1 hPa 0,0 l/m 0 min 0 min 0 W/m 9,7 km/h (2 Bft) 100,00 %
20.01.2023 18:12 1,4 C 1,1 C -1,1 C 94 % 1018,1 hPa 0,0 l/m 0 min 0 min 0 W/m 9,7 km/h (2 Bft) 95,83 %
20.01.2023 18:14 1,4 C 1,1 C -1,1 C 94 % 1018,2 hPa 0,0 l/m 0 min 0 min 0 W/m 9,7 km/h (2 Bft) 95,74 %
20.01.2023 18:16 1,4 C 1,1 C -1,1 C 94 % 1018,3 hPa 0,0 l/m 0 min 0 min 0 W/m 12,9 km/h (3 Bft) 95,74 %
20.01.2023 18:18 1,4 C 1,1 C -1,1 C 94 % 1018,3 hPa 0,0 l/m 0 min 0 min 0 W/m 9,7 km/h (2 Bft) 95,74 %
20.01.2023 18:20 1,4 C 0,6 C -1,1 C 94 % 1018,3 hPa 0,0 l/m 0 min 0 min 0 W/m 6,4 km/h (2 Bft) 95,74 %
20.01.2023 18:22 1,4 C 0,6 C -1,1 C 93 % 1018,3 hPa 0,0 l/m 0 min 0 min 0 W/m 6,4 km/h (2 Bft) 95,74 %
20.01.2023 18:24 1,4 C 0,6 C -1,1 C 93 % 1018,4 hPa 0,0 l/m 0 min 0 min 0 W/m 6,4 km/h (2 Bft) 96,36 %
20.01.2023 18:26 1,3 C 0,6 C -1,1 C 93 % 1018,4 hPa 0,0 l/m 0 min 0 min 0 W/m 6,4 km/h (2 Bft) 97,96 %
20.01.2023 18:28 1,3 C 0,6 C -1,1 C 93 % 1018,5 hPa 0,0 l/m 0 min 0 min 0 W/m 6,4 km/h (2 Bft) 97,92 %
20.01.2023 18:30 1,3 C 0,6 C -1,1 C 93 % 1018,5 hPa 0,0 l/m 0 min 0 min 0 W/m 6,4 km/h (2 Bft) 95,74 %
20.01.2023 18:32 1,2 C 0,0 C -1,7 C 93 % 1018,6 hPa 0,0 l/m 0 min 0 min 0 W/m 6,4 km/h (2 Bft) 97,14 %
20.01.2023 18:34 1,2 C 0,0 C -1,7 C 92 % 1018,6 hPa 0,0 l/m 0 min 0 min 0 W/m 6,4 km/h (2 Bft) 92,73 %
20.01.2023 18:36 1,1 C 0,0 C -1,7 C 92 % 1018,6 hPa 0,0 l/m 0 min 0 min 0 W/m 6,4 km/h (2 Bft) 98,00 %
20.01.2023 18:38 1,1 C 0,0 C -1,7 C 92 % 1018,6 hPa 0,0 l/m 0 min 0 min 0 W/m 9,7 km/h (2 Bft) 95,65 %
20.01.2023 18:40 1,1 C 0,0 C -1,7 C 92 % 1018,7 hPa 0,0 l/m 0 min 0 min 0 W/m 6,4 km/h (2 Bft) 97,92 %
20.01.2023 18:42 1,0 C 0,0 C -1,7 C 92 % 1018,7 hPa 0,0 l/m 0 min 0 min 0 W/m 12,9 km/h (3 Bft) 100,00 %
20.01.2023 18:44 0,9 C 0,0 C -1,7 C 92 % 1018,7 hPa 0,0 l/m 0 min 0 min 0 W/m 16,1 km/h (3 Bft) 97,14 %
20.01.2023 18:46 0,9 C 0,0 C -1,7 C 92 % 1018,7 hPa 0,0 l/m 0 min 0 min 0 W/m 6,4 km/h (2 Bft) 100,00 %
20.01.2023 18:48 0,9 C 0,0 C -1,7 C 92 % 1018,7 hPa 0,0 l/m 0 min 0 min 0 W/m 6,4 km/h (2 Bft) 100,00 %
20.01.2023 18:50 0,9 C 0,0 C -1,7 C 92 % 1018,8 hPa 0,0 l/m 0 min 0 min 0 W/m 9,7 km/h (2 Bft) 97,87 %
20.01.2023 18:52 0,8 C -0,6 C -2,2 C 92 % 1018,9 hPa 0,0 l/m 0 min 0 min 0 W/m 6,4 km/h (2 Bft) 100,00 %
20.01.2023 18:54 0,8 C -0,6 C -2,2 C 92 % 1018,9 hPa 0,0 l/m 0 min 0 min 0 W/m 6,4 km/h (2 Bft) 100,00 %
20.01.2023 18:56 0,7 C -0,6 C -2,2 C 92 % 1019,0 hPa 0,0 l/m 0 min 0 min 0 W/m 3,2 km/h (1 Bft) 97,87 %
20.01.2023 18:58 0,7 C -0,6 C -2,2 C 92 % 1019,0 hPa 0,0 l/m 0 min 0 min 0 W/m 6,4 km/h (2 Bft) 100,00 %
20.01.2023 19:00 0,6 C -0,6 C -2,2 C 92 % 1019,0 hPa 0,0 l/m 0 min 0 min 0 W/m 6,4 km/h (2 Bft) 100,00 %
20.01.2023 19:02 0,6 C -0,6 C -2,2 C 92 % 1019,1 hPa 0,0 l/m 0 min 0 min 0 W/m 6,4 km/h (2 Bft) 95,74 %
20.01.2023 19:04 0,6 C -0,6 C -2,2 C 92 % 1019,1 hPa 0,0 l/m 0 min 0 min 0 W/m 6,4 km/h (2 Bft) 100,00 %
20.01.2023 19:06 0,6 C -0,6 C -2,2 C 92 % 1019,2 hPa 0,0 l/m 0 min 0 min 0 W/m 6,4 km/h (2 Bft) 100,00 %
20.01.2023 19:08 0,5 C -1,1 C -2,2 C 92 % 1019,2 hPa 0,0 l/m 0 min 0 min 0 W/m 6,4 km/h (2 Bft) 97,14 %
20.01.2023 19:10 0,4 C -1,1 C -2,2 C 92 % 1019,3 hPa 0,0 l/m 0 min 0 min 0 W/m 3,2 km/h (1 Bft) 100,00 %
20.01.2023 19:12 0,4 C -1,1 C -2,8 C 92 % 1019,4 hPa 0,0 l/m 0 min 0 min 0 W/m 6,4 km/h (2 Bft) 100,00 %
20.01.2023 19:14 0,4 C -1,1 C -2,8 C 92 % 1019,4 hPa 0,0 l/m 0 min 0 min 0 W/m 9,7 km/h (2 Bft) 97,87 %
20.01.2023 19:16 0,3 C -1,1 C -2,8 C 92 % 1019,4 hPa 0,0 l/m 0 min 0 min 0 W/m 6,4 km/h (2 Bft) 100,00 %
20.01.2023 19:18 0,3 C -1,1 C -2,8 C 92 % 1019,4 hPa 0,0 l/m 0 min 0 min 0 W/m 6,4 km/h (2 Bft) 100,00 %
20.01.2023 19:20 0,3 C -1,1 C -2,8 C 92 % 1019,4 hPa 0,0 l/m 0 min 0 min 0 W/m 6,4 km/h (2 Bft) 97,83 %
20.01.2023 19:22 0,3 C -1,1 C -2,8 C 92 % 1019,5 hPa 0,0 l/m 0 min 0 min 0 W/m 6,4 km/h (2 Bft) 100,00 %
20.01.2023 19:24 0,2 C -1,1 C -2,8 C 92 % 1019,5 hPa 0,0 l/m 0 min 0 min 0 W/m 6,4 km/h (2 Bft) 100,00 %
20.01.2023 19:26 0,2 C -1,1 C -2,8 C 92 % 1019,5 hPa 0,0 l/m 0 min 0 min 0 W/m 3,2 km/h (1 Bft) 97,87 %
20.01.2023 19:28 0,2 C -1,1 C -2,8 C 92 % 1019,5 hPa 0,0 l/m 0 min 0 min 0 W/m 3,2 km/h (1 Bft) 100,00 %
20.01.2023 19:30 0,2 C -1,1 C -2,8 C 92 % 1019,5 hPa 0,0 l/m 0 min 0 min 0 W/m 6,4 km/h (2 Bft) 100,00 %
20.01.2023 19:32 0,1 C -1,1 C -2,8 C 92 % 1019,5 hPa 0,0 l/m 0 min 0 min 0 W/m 3,2 km/h (1 Bft) 100,00 %
20.01.2023 19:34 0,1 C -1,1 C -2,8 C 92 % 1019,5 hPa 0,0 l/m 0 min 0 min 0 W/m 6,4 km/h (2 Bft) 100,00 %
20.01.2023 19:36 0,1 C -1,1 C -2,8 C 92 % 1019,6 hPa 0,0 l/m 0 min 0 min 0 W/m 6,4 km/h (2 Bft) 100,00 %
20.01.2023 19:38 0,1 C -1,1 C -2,8 C 92 % 1019,6 hPa 0,0 l/m 0 min 0 min 0 W/m 6,4 km/h (2 Bft) 97,87 %
20.01.2023 19:40 0,1 C -1,1 C -2,8 C 92 % 1019,7 hPa 0,0 l/m 0 min 0 min 0 W/m 6,4 km/h (2 Bft) 100,00 %
20.01.2023 19:42 0,0 C -1,1 C -2,8 C 92 % 1019,7 hPa 0,0 l/m 0 min 0 min 0 W/m 6,4 km/h (2 Bft) 100,00 %
20.01.2023 19:44 0,0 C -1,1 C -2,8 C 92 % 1019,7 hPa 0,0 l/m 0 min 0 min 0 W/m 3,2 km/h (1 Bft) 100,00 %
20.01.2023 19:46 -0,1 C -1,1 C -2,8 C 93 % 1019,7 hPa 0,0 l/m 0 min 0 min 0 W/m 6,4 km/h (2 Bft) 90,91 %
20.01.2023 19:48 -0,1 C -1,1 C -2,8 C 93 % 1019,8 hPa 0,0 l/m 0 min 0 min 0 W/m 6,4 km/h (2 Bft) 100,00 %
20.01.2023 19:50 -0,1 C -1,1 C -2,8 C 93 % 1019,7 hPa 0,0 l/m 0 min 0 min 0 W/m 6,4 km/h (2 Bft) 91,30 %
20.01.2023 19:52 -0,1 C -1,1 C -2,8 C 93 % 1019,8 hPa 0,0 l/m 0 min 0 min 0 W/m 3,2 km/h (1 Bft) 97,87 %
20.01.2023 19:54 -0,1 C -1,1 C -2,8 C 93 % 1019,9 hPa 0,0 l/m 0 min 0 min 0 W/m 3,2 km/h (1 Bft) 100,00 %
20.01.2023 19:56 -0,1 C -1,1 C -2,8 C 93 % 1019,9 hPa 0,0 l/m 0 min 0 min 0 W/m 3,2 km/h (1 Bft) 95,74 %
20.01.2023 19:58 -0,1 C -1,1 C -2,8 C 93 % 1019,9 hPa 0,0 l/m 0 min 0 min 0 W/m 3,2 km/h (1 Bft) 95,74 %
20.01.2023 20:00 -0,1 C -1,1 C -2,8 C 93 % 1020,0 hPa 0,0 l/m 0 min 0 min 0 W/m 3,2 km/h (1 Bft) 97,87 %
20.01.2023 20:02 -0,2 C -1,1 C -2,8 C 93 % 1020,0 hPa 0,0 l/m 0 min 0 min 0 W/m 3,2 km/h (1 Bft) 95,74 %
20.01.2023 20:04 -0,2 C -1,1 C -2,8 C 93 % 1020,0 hPa 0,0 l/m 0 min 0 min 0 W/m 3,2 km/h (1 Bft) 95,65 %
20.01.2023 20:06 -0,2 C -1,1 C -3,3 C 93 % 1020,1 hPa 0,0 l/m 0 min 0 min 0 W/m 6,4 km/h (2 Bft) 95,74 %
20.01.2023 20:08 -0,2 C -1,1 C -3,3 C 93 % 1020,1 hPa 0,0 l/m 0 min 0 min 0 W/m 3,2 km/h (1 Bft) 93,62 %
20.01.2023 20:10 -0,2 C -1,1 C -3,3 C 93 % 1020,1 hPa 0,0 l/m 0 min 0 min 0 W/m 3,2 km/h (1 Bft) 95,74 %
20.01.2023 20:12 -0,2 C -1,1 C -3,3 C 93 % 1020,2 hPa 0,0 l/m 0 min 0 min 0 W/m 3,2 km/h (1 Bft) 95,74 %
20.01.2023 20:14 -0,3 C -1,1 C -3,3 C 93 % 1020,2 hPa 0,0 l/m 0 min 0 min 0 W/m 3,2 km/h (1 Bft) 95,74 %
20.01.2023 20:16 -0,3 C -1,1 C -3,3 C 93 % 1020,2 hPa 0,0 l/m 0 min 0 min 0 W/m 3,2 km/h (1 Bft) 91,49 %
20.01.2023 20:18 -0,3 C -1,1 C -3,3 C 93 % 1020,3 hPa 0,0 l/m 0 min 0 min 0 W/m 3,2 km/h (1 Bft) 93,62 %
20.01.2023 20:20 -0,4 C -1,1 C -3,3 C 93 % 1020,4 hPa 0,0 l/m 0 min 0 min 0 W/m 3,2 km/h (1 Bft) 91,30 %
20.01.2023 20:22 -0,4 C -1,1 C -3,3 C 93 % 1020,4 hPa 0,0 l/m 0 min 0 min 0 W/m 3,2 km/h (1 Bft) 93,62 %
20.01.2023 20:24 -0,4 C -1,1 C -3,3 C 93 % 1020,4 hPa 0,0 l/m 0 min 0 min 0 W/m 3,2 km/h (1 Bft) 97,87 %
20.01.2023 20:26 -0,4 C -1,1 C -3,3 C 93 % 1020,4 hPa 0,0 l/m 0 min 0 min 0 W/m 3,2 km/h (1 Bft) 95,74 %
20.01.2023 20:28 -0,4 C -1,1 C -3,3 C 93 % 1020,4 hPa 0,0 l/m 0 min 0 min 0 W/m 9,7 km/h (2 Bft) 95,74 %
20.01.2023 20:30 -0,5 C -1,1 C -3,3 C 93 % 1020,5 hPa 0,0 l/m 0 min 0 min 0 W/m 3,2 km/h (1 Bft) 95,74 %
20.01.2023 20:32 -0,5 C -1,7 C -3,3 C 93 % 1020,5 hPa 0,0 l/m 0 min 0 min 0 W/m 3,2 km/h (1 Bft) 89,36 %
20.01.2023 20:34 -0,6 C -1,7 C -3,3 C 93 % 1020,6 hPa 0,0 l/m 0 min 0 min 0 W/m 3,2 km/h (1 Bft) 95,65 %
20.01.2023 20:36 -0,6 C -1,7 C -3,3 C 93 % 1020,5 hPa 0,0 l/m 0 min 0 min 0 W/m 6,4 km/h (2 Bft) 91,49 %
20.01.2023 20:38 -0,6 C -1,7 C -3,3 C 93 % 1020,6 hPa 0,0 l/m 0 min 0 min 0 W/m 3,2 km/h (1 Bft) 93,62 %
20.01.2023 20:40 -0,6 C -1,7 C -3,3 C 93 % 1020,6 hPa 0,0 l/m 0 min 0 min 0 W/m 3,2 km/h (1 Bft) 97,87 %
20.01.2023 20:42 -0,6 C -1,7 C -3,3 C 93 % 1020,6 hPa 0,0 l/m 0 min 0 min 0 W/m 3,2 km/h (1 Bft) 93,62 %
20.01.2023 20:44 -0,7 C -1,7 C -3,3 C 93 % 1020,7 hPa 0,0 l/m 0 min 0 min 0 W/m 3,2 km/h (1 Bft) 97,87 %
20.01.2023 20:46 -0,7 C -1,7 C -3,3 C 93 % 1020,7 hPa 0,0 l/m 0 min 0 min 0 W/m 3,2 km/h (1 Bft) 97,96 %
20.01.2023 20:48 -0,7 C -1,7 C -3,3 C 93 % 1020,7 hPa 0,0 l/m 0 min 0 min 0 W/m 3,2 km/h (1 Bft) 95,74 %
20.01.2023 20:50 -0,7 C -1,7 C -3,9 C 93 % 1020,8 hPa 0,0 l/m 0 min 0 min 0 W/m 3,2 km/h (1 Bft) 97,87 %
20.01.2023 20:52 -0,7 C -1,7 C -3,9 C 93 % 1020,9 hPa 0,0 l/m 0 min 0 min 0 W/m 3,2 km/h (1 Bft) 95,74 %
20.01.2023 20:54 -0,8 C -1,7 C -3,9 C 93 % 1020,9 hPa 0,0 l/m 0 min 0 min 0 W/m 3,2 km/h (1 Bft) 97,87 %
20.01.2023 20:56 -0,8 C -1,7 C -3,9 C 93 % 1020,9 hPa 0,0 l/m 0 min 0 min 0 W/m 3,2 km/h (1 Bft) 97,87 %
20.01.2023 20:58 -0,8 C -1,7 C -3,9 C 93 % 1021,0 hPa 0,0 l/m 0 min 0 min 0 W/m 0,0 km/h (0 Bft) 97,87 %
20.01.2023 21:00 -0,8 C -1,7 C -3,9 C 94 % 1020,9 hPa 0,0 l/m 0 min 0 min 0 W/m 3,2 km/h (1 Bft) 97,83 %
20.01.2023 21:02 -0,8 C -1,7 C -3,3 C 94 % 1021,0 hPa 0,0 l/m 0 min 0 min 0 W/m 6,4 km/h (2 Bft) 95,74 %
20.01.2023 21:04 -0,8 C -1,7 C -3,3 C 93 % 1021,1 hPa 0,0 l/m 0 min 0 min 0 W/m 6,4 km/h (2 Bft) 97,87 %
20.01.2023 21:06 -0,8 C -1,7 C -3,3 C 93 % 1021,1 hPa 0,0 l/m 0 min 0 min 0 W/m 3,2 km/h (1 Bft) 95,74 %
20.01.2023 21:08 -0,8 C -1,7 C -3,3 C 93 % 1021,1 hPa 0,0 l/m 0 min 0 min 0 W/m 6,4 km/h (2 Bft) 95,74 %
20.01.2023 21:10 -0,8 C -1,7 C -3,3 C 93 % 1021,1 hPa 0,0 l/m 0 min 0 min 0 W/m 3,2 km/h (1 Bft) 93,62 %
20.01.2023 21:12 -0,8 C -1,7 C -3,3 C 94 % 1021,1 hPa 0,0 l/m 0 min 0 min 0 W/m 3,2 km/h (1 Bft) 95,74 %
20.01.2023 21:14 -0,8 C -1,7 C -3,3 C 94 % 1021,2 hPa 0,0 l/m 0 min 0 min 0 W/m 3,2 km/h (1 Bft) 95,65 %
20.01.2023 21:16 -0,8 C -1,7 C -3,3 C 94 % 1021,2 hPa 0,0 l/m 0 min 0 min 0 W/m 3,2 km/h (1 Bft) 97,87 %
20.01.2023 21:18 -0,8 C -1,7 C -3,3 C 94 % 1021,3 hPa 0,0 l/m 0 min 0 min 0 W/m 3,2 km/h (1 Bft) 97,87 %
20.01.2023 21:20 -0,8 C -1,7 C -3,3 C 94 % 1021,3 hPa 0,0 l/m 0 min 0 min 0 W/m 3,2 km/h (1 Bft) 97,87 %
20.01.2023 21:22 -0,8 C -1,7 C -3,3 C 94 % 1021,3 hPa 0,0 l/m 0 min 0 min 0 W/m 3,2 km/h (1 Bft) 97,87 %
20.01.2023 21:24 -0,8 C -1,7 C -3,3 C 94 % 1021,3 hPa 0,0 l/m 0 min 0 min 0 W/m 3,2 km/h (1 Bft) 97,87 %
20.01.2023 21:26 -0,8 C -1,7 C -3,3 C 94 % 1021,3 hPa 0,0 l/m 0 min 0 min 0 W/m 3,2 km/h (1 Bft) 100,00 %
20.01.2023 21:28 -0,8 C -1,7 C -3,3 C 94 % 1021,3 hPa 0,0 l/m 0 min 0 min 0 W/m 6,4 km/h (2 Bft) 100,00 %
20.01.2023 21:30 -0,8 C -1,7 C -3,3 C 94 % 1021,4 hPa 0,0 l/m 0 min 0 min 0 W/m 3,2 km/h (1 Bft) 100,00 %
20.01.2023 21:32 -0,8 C -1,7 C -3,3 C 94 % 1021,4 hPa 0,0 l/m 0 min 0 min 0 W/m 3,2 km/h (1 Bft) 95,74 %
20.01.2023 21:34 -0,8 C -1,7 C -3,3 C 94 % 1021,5 hPa 0,0 l/m 0 min 0 min 0 W/m 3,2 km/h (1 Bft) 97,87 %
20.01.2023 21:36 -0,8 C -1,7 C -3,3 C 94 % 1021,5 hPa 0,0 l/m 0 min 0 min 0 W/m 3,2 km/h (1 Bft) 95,74 %
20.01.2023 21:38 -0,8 C -1,7 C -3,3 C 94 % 1021,6 hPa 0,0 l/m 0 min 0 min 0 W/m 3,2 km/h (1 Bft) 100,00 %
20.01.2023 21:40 -0,8 C -1,7 C -3,3 C 94 % 1021,7 hPa 0,0 l/m 0 min 0 min 0 W/m 6,4 km/h (2 Bft) 97,87 %
20.01.2023 21:42 -0,8 C -1,7 C -3,3 C 94 % 1021,7 hPa 0,0 l/m 0 min 0 min 0 W/m 6,4 km/h (2 Bft) 95,74 %
20.01.2023 21:44 -0,8 C -1,7 C -3,3 C 94 % 1021,7 hPa 0,0 l/m 0 min 0 min 0 W/m 6,4 km/h (2 Bft) 95,65 %
20.01.2023 21:46 -0,8 C -1,7 C -3,3 C 94 % 1021,8 hPa 0,0 l/m 0 min 0 min 0 W/m 6,4 km/h (2 Bft) 97,87 %
20.01.2023 21:48 -0,8 C -1,7 C -3,3 C 94 % 1021,8 hPa 0,0 l/m 0 min 0 min 0 W/m 6,4 km/h (2 Bft) 97,87 %
20.01.2023 21:50 -0,8 C -1,7 C -3,3 C 94 % 1021,8 hPa 0,0 l/m 0 min 0 min 0 W/m 6,4 km/h (2 Bft) 97,87 %
20.01.2023 21:52 -0,8 C -1,7 C -3,3 C 94 % 1021,8 hPa 0,0 l/m 0 min 0 min 0 W/m 3,2 km/h (1 Bft) 97,87 %
20.01.2023 21:54 -0,8 C -1,1 C -3,3 C 94 % 1021,8 hPa 0,0 l/m 0 min 0 min 0 W/m 6,4 km/h (2 Bft) 97,87 %
20.01.2023 21:56 -0,8 C -1,7 C -3,3 C 94 % 1021,8 hPa 0,0 l/m 0 min 0 min 0 W/m 6,4 km/h (2 Bft) 97,87 %
20.01.2023 21:58 -0,7 C -1,7 C -3,3 C 94 % 1021,9 hPa 0,0 l/m 0 min 0 min 0 W/m 3,2 km/h (1 Bft) 97,83 %
20.01.2023 22:00 -0,8 C -1,7 C -3,3 C 94 % 1021,9 hPa 0,0 l/m 0 min 0 min 0 W/m 3,2 km/h (1 Bft) 97,87 %
20.01.2023 22:02 -0,7 C -1,7 C -3,3 C 94 % 1021,9 hPa 0,0 l/m 0 min 0 min 0 W/m 6,4 km/h (2 Bft) 100,00 %
20.01.2023 22:04 -0,7 C -1,7 C -3,3 C 94 % 1022,0 hPa 0,0 l/m 0 min 0 min 0 W/m 3,2 km/h (1 Bft) 97,87 %
20.01.2023 22:06 -0,7 C -1,7 C -3,3 C 94 % 1022,0 hPa 0,0 l/m 0 min 0 min 0 W/m 3,2 km/h (1 Bft) 95,74 %
20.01.2023 22:08 -0,7 C -1,7 C -3,3 C 94 % 1022,0 hPa 0,0 l/m 0 min 0 min 0 W/m 3,2 km/h (1 Bft) 100,00 %
20.01.2023 22:10 -0,8 C -1,7 C -3,3 C 94 % 1022,1 hPa 0,0 l/m 0 min 0 min 0 W/m 6,4 km/h (2 Bft) 100,00 %
20.01.2023 22:12 -0,8 C -1,7 C -3,3 C 94 % 1022,1 hPa 0,0 l/m 0 min 0 min 0 W/m 6,4 km/h (2 Bft) 100,00 %
20.01.2023 22:14 -0,8 C -1,7 C -3,9 C 94 % 1022,2 hPa 0,0 l/m 0 min 0 min 0 W/m 3,2 km/h (1 Bft) 97,87 %
20.01.2023 22:16 -0,8 C -1,7 C -3,9 C 94 % 1022,1 hPa 0,0 l/m 0 min 0 min 0 W/m 3,2 km/h (1 Bft) 97,87 %
20.01.2023 22:18 -0,8 C -1,7 C -3,9 C 94 % 1022,2 hPa 0,0 l/m 0 min 0 min 0 W/m 3,2 km/h (1 Bft) 100,00 %
20.01.2023 22:20 -0,8 C -1,7 C -3,9 C 94 % 1022,3 hPa 0,0 l/m 0 min 0 min 0 W/m 3,2 km/h (1 Bft) 100,00 %
20.01.2023 22:22 -0,8 C -1,7 C -3,9 C 94 % 1022,4 hPa 0,0 l/m 0 min 0 min 0 W/m 6,4 km/h (2 Bft) 97,87 %
20.01.2023 22:24 -0,8 C -1,7 C -3,9 C 94 % 1022,4 hPa 0,0 l/m 0 min 0 min 0 W/m 6,4 km/h (2 Bft) 97,87 %
20.01.2023 22:26 -0,9 C -1,7 C -3,9 C 94 % 1022,4 hPa 0,0 l/m 0 min 0 min 0 W/m 3,2 km/h (1 Bft) 97,83 %
20.01.2023 22:28 -0,9 C -1,7 C -3,9 C 94 % 1022,5 hPa 0,0 l/m 0 min 0 min 0 W/m 3,2 km/h (1 Bft) 97,87 %
20.01.2023 22:30 -0,8 C -1,7 C -3,9 C 94 % 1022,5 hPa 0,0 l/m 0 min 0 min 0 W/m 3,2 km/h (1 Bft) 97,14 %
20.01.2023 22:32 -0,8 C -1,7 C -3,3 C 94 % 1022,6 hPa 0,0 l/m 0 min 0 min 0 W/m 3,2 km/h (1 Bft) 96,61 %
20.01.2023 22:34 -0,8 C -1,7 C -3,3 C 94 % 1022,6 hPa 0,0 l/m 0 min 0 min 0 W/m 6,4 km/h (2 Bft) 97,14 %
20.01.2023 22:36 -0,8 C -1,7 C -3,3 C 94 % 1022,6 hPa 0,0 l/m 0 min 0 min 0 W/m 3,2 km/h (1 Bft) 93,62 %
20.01.2023 22:38 -0,8 C -1,7 C -3,3 C 94 % 1022,7 hPa 0,0 l/m 0 min 0 min 0 W/m 6,4 km/h (2 Bft) 98,31 %
20.01.2023 22:40 -0,8 C -1,7 C -3,3 C 94 % 1022,7 hPa 0,0 l/m 0 min 0 min 0 W/m 3,2 km/h (1 Bft) 93,48 %
20.01.2023 22:42 -0,8 C -1,7 C -3,3 C 94 % 1022,7 hPa 0,0 l/m 0 min 0 min 0 W/m 6,4 km/h (2 Bft) 97,87 %
20.01.2023 22:44 -0,8 C -1,7 C -3,3 C 94 % 1022,7 hPa 0,0 l/m 0 min 0 min 0 W/m 6,4 km/h (2 Bft) 97,14 %
20.01.2023 22:46 -0,8 C -1,7 C -3,3 C 94 % 1022,8 hPa 0,0 l/m 0 min 0 min 0 W/m 6,4 km/h (2 Bft) 97,87 %
20.01.2023 22:48 -0,8 C -1,7 C -3,3 C 94 % 1022,8 hPa 0,0 l/m 0 min 0 min 0 W/m 6,4 km/h (2 Bft) 97,87 %
20.01.2023 22:50 -0,8 C -1,7 C -3,3 C 94 % 1022,8 hPa 0,0 l/m 0 min 0 min 0 W/m 12,9 km/h (3 Bft) 97,87 %
20.01.2023 22:52 -0,8 C -1,7 C -3,3 C 94 % 1022,9 hPa 0,0 l/m 0 min 0 min 0 W/m 6,4 km/h (2 Bft) 97,87 %
20.01.2023 22:54 -0,8 C -1,7 C -3,3 C 94 % 1022,9 hPa 0,0 l/m 0 min 0 min 0 W/m 6,4 km/h (2 Bft) 97,87 %
20.01.2023 22:56 -0,8 C -1,7 C -3,3 C 94 % 1022,9 hPa 0,0 l/m 0 min 0 min 0 W/m 6,4 km/h (2 Bft) 97,83 %
20.01.2023 22:58 -0,8 C -1,7 C -3,3 C 94 % 1023,0 hPa 0,0 l/m 0 min 0 min 0 W/m 6,4 km/h (2 Bft) 46,34 %
20.01.2023 23:00 -0,8 C -1,7 C -3,3 C 94 % 1023,0 hPa 0,0 l/m 0 min 0 min 0 W/m 3,2 km/h (1 Bft) 100,00 %
20.01.2023 23:02 -0,8 C -1,7 C -3,3 C 94 % 1023,0 hPa 0,0 l/m 0 min 0 min 0 W/m 3,2 km/h (1 Bft) 100,00 %
20.01.2023 23:04 -0,8 C -1,7 C -3,3 C 94 % 1023,0 hPa 0,0 l/m 0 min 0 min 0 W/m 3,2 km/h (1 Bft) 100,00 %
20.01.2023 23:06 -0,8 C -1,7 C -3,3 C 94 % 1023,0 hPa 0,0 l/m 0 min 0 min 0 W/m 3,2 km/h (1 Bft) 98,28 %
20.01.2023 23:08 -0,8 C -1,7 C -3,9 C 94 % 1023,1 hPa 0,0 l/m 0 min 0 min 0 W/m 6,4 km/h (2 Bft) 100,00 %
20.01.2023 23:10 -0,8 C -1,7 C -3,9 C 94 % 1023,1 hPa 0,0 l/m 0 min 0 min 0 W/m 3,2 km/h (1 Bft) 100,00 %
20.01.2023 23:12 -0,8 C -1,7 C -3,9 C 94 % 1023,1 hPa 0,0 l/m 0 min 0 min 0 W/m 3,2 km/h (1 Bft) 97,87 %
20.01.2023 23:14 -0,8 C -1,7 C -3,9 C 94 % 1023,1 hPa 0,0 l/m 0 min 0 min 0 W/m 6,4 km/h (2 Bft) 100,00 %
20.01.2023 23:16 -0,8 C -1,7 C -3,9 C 94 % 1023,2 hPa 0,0 l/m 0 min 0 min 0 W/m 6,4 km/h (2 Bft) 97,87 %
20.01.2023 23:18 -0,9 C -1,7 C -3,9 C 94 % 1023,2 hPa 0,0 l/m 0 min 0 min 0 W/m 6,4 km/h (2 Bft) 97,87 %
20.01.2023 23:20 -0,9 C -1,7 C -3,9 C 94 % 1023,2 hPa 0,0 l/m 0 min 0 min 0 W/m 3,2 km/h (1 Bft) 97,87 %
20.01.2023 23:22 -0,9 C -1,7 C -3,9 C 94 % 1023,3 hPa 0,0 l/m 0 min 0 min 0 W/m 6,4 km/h (2 Bft) 97,87 %
20.01.2023 23:24 -0,9 C -1,7 C -3,9 C 94 % 1023,3 hPa 0,0 l/m 0 min 0 min 0 W/m 3,2 km/h (1 Bft) 97,83 %
20.01.2023 23:26 -0,9 C -1,7 C -3,9 C 94 % 1023,4 hPa 0,0 l/m 0 min 0 min 0 W/m 6,4 km/h (2 Bft) 97,87 %
20.01.2023 23:28 -0,9 C -1,7 C -3,9 C 94 % 1023,3 hPa 0,0 l/m 0 min 0 min 0 W/m 6,4 km/h (2 Bft) 95,74 %
20.01.2023 23:30 -0,9 C -2,2 C -3,9 C 94 % 1023,4 hPa 0,0 l/m 0 min 0 min 0 W/m 3,2 km/h (1 Bft) 97,87 %
20.01.2023 23:32 -0,9 C -2,2 C -3,9 C 94 % 1023,4 hPa 0,0 l/m 0 min 0 min 0 W/m 3,2 km/h (1 Bft) 97,87 %
20.01.2023 23:34 -0,9 C -2,2 C -3,9 C 94 % 1023,4 hPa 0,0 l/m 0 min 0 min 0 W/m 6,4 km/h (2 Bft) 97,87 %
20.01.2023 23:36 -0,9 C -2,2 C -3,9 C 94 % 1023,4 hPa 0,0 l/m 0 min 0 min 0 W/m 3,2 km/h (1 Bft) 97,87 %
20.01.2023 23:38 -1,0 C -2,2 C -3,9 C 94 % 1023,4 hPa 0,0 l/m 0 min 0 min 0 W/m 6,4 km/h (2 Bft) 97,83 %
20.01.2023 23:40 -1,0 C -1,7 C -3,9 C 94 % 1023,4 hPa 0,0 l/m 0 min 0 min 0 W/m 6,4 km/h (2 Bft) 97,87 %
20.01.2023 23:42 -1,0 C -1,7 C -3,9 C 94 % 1023,5 hPa 0,0 l/m 0 min 0 min 0 W/m 6,4 km/h (2 Bft) 97,87 %
20.01.2023 23:44 -1,0 C -1,7 C -3,9 C 94 % 1023,5 hPa 0,0 l/m 0 min 0 min 0 W/m 6,4 km/h (2 Bft) 97,87 %
20.01.2023 23:46 -1,0 C -2,2 C -3,9 C 94 % 1023,5 hPa 0,0 l/m 0 min 0 min 0 W/m 3,2 km/h (1 Bft) 100,00 %
20.01.2023 23:48 -1,0 C -2,2 C -3,9 C 94 % 1023,6 hPa 0,0 l/m 0 min 0 min 0 W/m 3,2 km/h (1 Bft) 100,00 %
20.01.2023 23:50 -1,1 C -2,2 C -3,9 C 94 % 1023,6 hPa 0,0 l/m 0 min 0 min 0 W/m 3,2 km/h (1 Bft) 95,74 %
20.01.2023 23:52 -1,1 C -2,2 C -3,9 C 94 % 1023,6 hPa 0,0 l/m 0 min 0 min 0 W/m 3,2 km/h (1 Bft) 95,65 %
20.01.2023 23:54 -1,1 C -2,2 C -3,9 C 94 % 1023,7 hPa 0,0 l/m 0 min 0 min 0 W/m 6,4 km/h (2 Bft) 97,87 %
20.01.2023 23:56 -1,1 C -2,2 C -3,9 C 94 % 1023,7 hPa 0,0 l/m 0 min 0 min 0 W/m 0,0 km/h (0 Bft) 95,74 %
20.01.2023 23:58 -1,1 C -2,2 C -3,9 C 94 % 1023,8 hPa 0,0 l/m 0 min 0 min 0 W/m 0,0 km/h (0 Bft) 97,87 %
_ Min-Zeit 23:50 23:30 20:50 11:52 00:00 - - - - 00:02 00:02
Minimum _ -1,1 C -2,2 C -3,9 C 92 % 1010,8 hPa - - - - 0,0 km/h (0 Bft) 8,33 %
_ Max-Zeit 12:00 10:28 11:42 01:02 23:58 13:14 09:40 13:02 10:34 05:46 00:00
Maximum _ 1,8 C 1,7 C 0,0 C 97 % 1023,8 hPa 0,2 l/m 2 min 2 min 117 W/m 25,7 km/h
SO (4 Bft)
100,00 %
Durchschnitt _ 0,5 C -0,0 C -1,8 C 95 % 1015,8 hPa #0,2 l/m #2 min. #20 min. 42 W/m 8,7 km/h (2 Bft) 96,54 %
© 2023 W. Hausmann